<?xml version="1.0" encoding="UTF-8" standalone="no" ?>
<gpx xmlns="http://www.topografix.com/GPX/1/1" xmlns:xsi="http://www.w3.org/2001/XMLSchema-instance" xsi:schemaLocation="http://www.topografix.com/GPX/1/1 http://www.topografix.com/GPX/1/1/gpx.xsd" version="1.1" creator="VisuGPX - https://www.visugpx.com">
  <metadata>
    <name>Rocher et Statut de Saint-Michel</name>
    <desc><![CDATA[Sortie effectuée par 22 randonneurs du SCLapalud]]></desc>
  </metadata>
  <trk>
    <name><![CDATA[ACTIVE LOG 003]]></name>
    <trkseg>
      <trkpt lat="44.48707" lon="4.69146">
        <ele>67.910278</ele>
        <time>2013-03-07T13:31:35Z</time>
      </trkpt>
      <trkpt lat="44.48703" lon="4.69155">
        <ele>65.026367</ele>
        <time>2013-03-07T13:31:57Z</time>
      </trkpt>
      <trkpt lat="44.48707" lon="4.6916">
        <ele>62.622925</ele>
        <time>2013-03-07T13:32:19Z</time>
      </trkpt>
      <trkpt lat="44.4871" lon="4.69161">
        <ele>61.18103</ele>
        <time>2013-03-07T13:32:36Z</time>
      </trkpt>
      <trkpt lat="44.48709" lon="4.69161">
        <ele>58.77771</ele>
        <time>2013-03-07T13:33:17Z</time>
      </trkpt>
      <trkpt lat="44.48708" lon="4.69163">
        <ele>58.77771</ele>
        <time>2013-03-07T13:33:36Z</time>
      </trkpt>
      <trkpt lat="44.48709" lon="4.69163">
        <ele>58.77771</ele>
        <time>2013-03-07T13:34:13Z</time>
      </trkpt>
      <trkpt lat="44.48714" lon="4.69166">
        <ele>58.77771</ele>
        <time>2013-03-07T13:34:31Z</time>
      </trkpt>
      <trkpt lat="44.48714" lon="4.69182">
        <ele>58.77771</ele>
        <time>2013-03-07T13:34:46Z</time>
      </trkpt>
      <trkpt lat="44.48718" lon="4.69194">
        <ele>58.77771</ele>
        <time>2013-03-07T13:34:58Z</time>
      </trkpt>
      <trkpt lat="44.48713" lon="4.69216">
        <ele>59.258423</ele>
        <time>2013-03-07T13:35:18Z</time>
      </trkpt>
      <trkpt lat="44.48697" lon="4.69238">
        <ele>59.258423</ele>
        <time>2013-03-07T13:35:43Z</time>
      </trkpt>
      <trkpt lat="44.48683" lon="4.69255">
        <ele>59.739136</ele>
        <time>2013-03-07T13:36:02Z</time>
      </trkpt>
      <trkpt lat="44.48672" lon="4.69268">
        <ele>59.258423</ele>
        <time>2013-03-07T13:36:16Z</time>
      </trkpt>
      <trkpt lat="44.48655" lon="4.69275">
        <ele>59.739136</ele>
        <time>2013-03-07T13:36:30Z</time>
      </trkpt>
      <trkpt lat="44.48638" lon="4.69284">
        <ele>59.739136</ele>
        <time>2013-03-07T13:36:49Z</time>
      </trkpt>
      <trkpt lat="44.48625" lon="4.69295">
        <ele>60.700317</ele>
        <time>2013-03-07T13:37:03Z</time>
      </trkpt>
      <trkpt lat="44.48611" lon="4.69309">
        <ele>60.700317</ele>
        <time>2013-03-07T13:37:17Z</time>
      </trkpt>
      <trkpt lat="44.48599" lon="4.69319">
        <ele>60.700317</ele>
        <time>2013-03-07T13:37:28Z</time>
      </trkpt>
      <trkpt lat="44.48581" lon="4.69334">
        <ele>60.700317</ele>
        <time>2013-03-07T13:37:47Z</time>
      </trkpt>
      <trkpt lat="44.48567" lon="4.69348">
        <ele>60.700317</ele>
        <time>2013-03-07T13:38:02Z</time>
      </trkpt>
      <trkpt lat="44.4855" lon="4.69367">
        <ele>60.219727</ele>
        <time>2013-03-07T13:38:21Z</time>
      </trkpt>
      <trkpt lat="44.48537" lon="4.6938">
        <ele>60.700317</ele>
        <time>2013-03-07T13:38:36Z</time>
      </trkpt>
      <trkpt lat="44.48522" lon="4.69395">
        <ele>60.700317</ele>
        <time>2013-03-07T13:38:50Z</time>
      </trkpt>
      <trkpt lat="44.48519" lon="4.69399">
        <ele>60.700317</ele>
        <time>2013-03-07T13:38:54Z</time>
      </trkpt>
      <trkpt lat="44.48513" lon="4.69405">
        <ele>60.700317</ele>
        <time>2013-03-07T13:38:58Z</time>
      </trkpt>
      <trkpt lat="44.48499" lon="4.69419">
        <ele>60.700317</ele>
        <time>2013-03-07T13:39:14Z</time>
      </trkpt>
      <trkpt lat="44.48483" lon="4.69434">
        <ele>61.18103</ele>
        <time>2013-03-07T13:39:33Z</time>
      </trkpt>
      <trkpt lat="44.48469" lon="4.69448">
        <ele>61.18103</ele>
        <time>2013-03-07T13:39:50Z</time>
      </trkpt>
      <trkpt lat="44.48455" lon="4.69461">
        <ele>61.18103</ele>
        <time>2013-03-07T13:40:05Z</time>
      </trkpt>
      <trkpt lat="44.48437" lon="4.69477">
        <ele>61.661743</ele>
        <time>2013-03-07T13:40:21Z</time>
      </trkpt>
      <trkpt lat="44.48431" lon="4.69484">
        <ele>61.661743</ele>
        <time>2013-03-07T13:40:27Z</time>
      </trkpt>
      <trkpt lat="44.48423" lon="4.69491">
        <ele>61.661743</ele>
        <time>2013-03-07T13:40:35Z</time>
      </trkpt>
      <trkpt lat="44.48406" lon="4.69505">
        <ele>61.661743</ele>
        <time>2013-03-07T13:40:51Z</time>
      </trkpt>
      <trkpt lat="44.48389" lon="4.69518">
        <ele>61.661743</ele>
        <time>2013-03-07T13:41:06Z</time>
      </trkpt>
      <trkpt lat="44.48369" lon="4.69534">
        <ele>61.661743</ele>
        <time>2013-03-07T13:41:24Z</time>
      </trkpt>
      <trkpt lat="44.48347" lon="4.69549">
        <ele>61.18103</ele>
        <time>2013-03-07T13:41:48Z</time>
      </trkpt>
      <trkpt lat="44.48329" lon="4.69563">
        <ele>61.18103</ele>
        <time>2013-03-07T13:42:06Z</time>
      </trkpt>
      <trkpt lat="44.48308" lon="4.69576">
        <ele>61.661743</ele>
        <time>2013-03-07T13:42:27Z</time>
      </trkpt>
      <trkpt lat="44.48288" lon="4.69594">
        <ele>61.661743</ele>
        <time>2013-03-07T13:42:46Z</time>
      </trkpt>
      <trkpt lat="44.4827" lon="4.69606">
        <ele>61.661743</ele>
        <time>2013-03-07T13:43:03Z</time>
      </trkpt>
      <trkpt lat="44.48253" lon="4.69619">
        <ele>61.18103</ele>
        <time>2013-03-07T13:43:19Z</time>
      </trkpt>
      <trkpt lat="44.48234" lon="4.69631">
        <ele>61.661743</ele>
        <time>2013-03-07T13:43:35Z</time>
      </trkpt>
      <trkpt lat="44.48216" lon="4.69643">
        <ele>61.18103</ele>
        <time>2013-03-07T13:43:52Z</time>
      </trkpt>
      <trkpt lat="44.482" lon="4.69656">
        <ele>61.18103</ele>
        <time>2013-03-07T13:44:09Z</time>
      </trkpt>
      <trkpt lat="44.4819" lon="4.6966">
        <ele>61.661743</ele>
        <time>2013-03-07T13:44:21Z</time>
      </trkpt>
      <trkpt lat="44.48189" lon="4.6966">
        <ele>61.18103</ele>
        <time>2013-03-07T13:44:39Z</time>
      </trkpt>
      <trkpt lat="44.4819" lon="4.6966">
        <ele>61.18103</ele>
        <time>2013-03-07T13:44:41Z</time>
      </trkpt>
      <trkpt lat="44.48196" lon="4.69663">
        <ele>60.700317</ele>
        <time>2013-03-07T13:44:54Z</time>
      </trkpt>
      <trkpt lat="44.48189" lon="4.69681">
        <ele>59.739136</ele>
        <time>2013-03-07T13:45:08Z</time>
      </trkpt>
      <trkpt lat="44.48179" lon="4.69703">
        <ele>60.219727</ele>
        <time>2013-03-07T13:45:22Z</time>
      </trkpt>
      <trkpt lat="44.48178" lon="4.69704">
        <ele>60.219727</ele>
        <time>2013-03-07T13:45:23Z</time>
      </trkpt>
      <trkpt lat="44.48165" lon="4.6972">
        <ele>59.739136</ele>
        <time>2013-03-07T13:45:40Z</time>
      </trkpt>
      <trkpt lat="44.48163" lon="4.69724">
        <ele>60.219727</ele>
        <time>2013-03-07T13:45:44Z</time>
      </trkpt>
      <trkpt lat="44.48156" lon="4.69742">
        <ele>59.739136</ele>
        <time>2013-03-07T13:45:59Z</time>
      </trkpt>
      <trkpt lat="44.48145" lon="4.69748">
        <ele>59.258423</ele>
        <time>2013-03-07T13:46:09Z</time>
      </trkpt>
      <trkpt lat="44.48131" lon="4.69747">
        <ele>59.739136</ele>
        <time>2013-03-07T13:46:23Z</time>
      </trkpt>
      <trkpt lat="44.48119" lon="4.69749">
        <ele>60.219727</ele>
        <time>2013-03-07T13:46:34Z</time>
      </trkpt>
      <trkpt lat="44.48108" lon="4.69745">
        <ele>60.700317</ele>
        <time>2013-03-07T13:46:47Z</time>
      </trkpt>
      <trkpt lat="44.48092" lon="4.69749">
        <ele>61.18103</ele>
        <time>2013-03-07T13:47:04Z</time>
      </trkpt>
      <trkpt lat="44.48088" lon="4.69751">
        <ele>61.18103</ele>
        <time>2013-03-07T13:47:07Z</time>
      </trkpt>
      <trkpt lat="44.48068" lon="4.69755">
        <ele>61.18103</ele>
        <time>2013-03-07T13:47:25Z</time>
      </trkpt>
      <trkpt lat="44.48064" lon="4.69756">
        <ele>61.18103</ele>
        <time>2013-03-07T13:47:29Z</time>
      </trkpt>
      <trkpt lat="44.48041" lon="4.69758">
        <ele>60.700317</ele>
        <time>2013-03-07T13:47:49Z</time>
      </trkpt>
      <trkpt lat="44.4804" lon="4.69758">
        <ele>61.18103</ele>
        <time>2013-03-07T13:47:50Z</time>
      </trkpt>
      <trkpt lat="44.48039" lon="4.69758">
        <ele>60.700317</ele>
        <time>2013-03-07T13:47:52Z</time>
      </trkpt>
      <trkpt lat="44.48031" lon="4.69759">
        <ele>61.18103</ele>
        <time>2013-03-07T13:47:59Z</time>
      </trkpt>
      <trkpt lat="44.48019" lon="4.6976">
        <ele>61.18103</ele>
        <time>2013-03-07T13:48:10Z</time>
      </trkpt>
      <trkpt lat="44.48004" lon="4.69758">
        <ele>61.18103</ele>
        <time>2013-03-07T13:48:25Z</time>
      </trkpt>
      <trkpt lat="44.47985" lon="4.69762">
        <ele>61.18103</ele>
        <time>2013-03-07T13:48:41Z</time>
      </trkpt>
      <trkpt lat="44.47958" lon="4.6977">
        <ele>60.700317</ele>
        <time>2013-03-07T13:49:05Z</time>
      </trkpt>
      <trkpt lat="44.47943" lon="4.69776">
        <ele>60.700317</ele>
        <time>2013-03-07T13:49:21Z</time>
      </trkpt>
      <trkpt lat="44.47942" lon="4.69776">
        <ele>61.18103</ele>
        <time>2013-03-07T13:49:23Z</time>
      </trkpt>
      <trkpt lat="44.47919" lon="4.69771">
        <ele>61.18103</ele>
        <time>2013-03-07T13:49:45Z</time>
      </trkpt>
      <trkpt lat="44.47905" lon="4.69769">
        <ele>60.700317</ele>
        <time>2013-03-07T13:49:59Z</time>
      </trkpt>
      <trkpt lat="44.47886" lon="4.6977">
        <ele>61.18103</ele>
        <time>2013-03-07T13:50:16Z</time>
      </trkpt>
      <trkpt lat="44.47868" lon="4.69772">
        <ele>60.700317</ele>
        <time>2013-03-07T13:50:31Z</time>
      </trkpt>
      <trkpt lat="44.47855" lon="4.69777">
        <ele>60.700317</ele>
        <time>2013-03-07T13:50:43Z</time>
      </trkpt>
      <trkpt lat="44.47836" lon="4.69782">
        <ele>61.18103</ele>
        <time>2013-03-07T13:50:59Z</time>
      </trkpt>
      <trkpt lat="44.47826" lon="4.69784">
        <ele>61.18103</ele>
        <time>2013-03-07T13:51:12Z</time>
      </trkpt>
      <trkpt lat="44.47814" lon="4.69783">
        <ele>61.18103</ele>
        <time>2013-03-07T13:51:25Z</time>
      </trkpt>
      <trkpt lat="44.47792" lon="4.69784">
        <ele>61.18103</ele>
        <time>2013-03-07T13:51:43Z</time>
      </trkpt>
      <trkpt lat="44.47768" lon="4.69788">
        <ele>60.700317</ele>
        <time>2013-03-07T13:52:05Z</time>
      </trkpt>
      <trkpt lat="44.47753" lon="4.69787">
        <ele>61.18103</ele>
        <time>2013-03-07T13:52:20Z</time>
      </trkpt>
      <trkpt lat="44.47738" lon="4.69786">
        <ele>61.661743</ele>
        <time>2013-03-07T13:52:40Z</time>
      </trkpt>
      <trkpt lat="44.47726" lon="4.69787">
        <ele>61.661743</ele>
        <time>2013-03-07T13:52:52Z</time>
      </trkpt>
      <trkpt lat="44.47712" lon="4.69791">
        <ele>61.18103</ele>
        <time>2013-03-07T13:53:01Z</time>
      </trkpt>
      <trkpt lat="44.47696" lon="4.69788">
        <ele>61.18103</ele>
        <time>2013-03-07T13:53:13Z</time>
      </trkpt>
      <trkpt lat="44.47683" lon="4.69788">
        <ele>61.18103</ele>
        <time>2013-03-07T13:53:27Z</time>
      </trkpt>
      <trkpt lat="44.47666" lon="4.6979">
        <ele>61.18103</ele>
        <time>2013-03-07T13:53:41Z</time>
      </trkpt>
      <trkpt lat="44.47645" lon="4.69795">
        <ele>61.18103</ele>
        <time>2013-03-07T13:53:58Z</time>
      </trkpt>
      <trkpt lat="44.47633" lon="4.69798">
        <ele>61.661743</ele>
        <time>2013-03-07T13:54:13Z</time>
      </trkpt>
      <trkpt lat="44.47614" lon="4.69807">
        <ele>61.661743</ele>
        <time>2013-03-07T13:54:29Z</time>
      </trkpt>
      <trkpt lat="44.47597" lon="4.69812">
        <ele>62.142334</ele>
        <time>2013-03-07T13:54:43Z</time>
      </trkpt>
      <trkpt lat="44.47577" lon="4.69819">
        <ele>62.142334</ele>
        <time>2013-03-07T13:55:01Z</time>
      </trkpt>
      <trkpt lat="44.47559" lon="4.6982">
        <ele>62.142334</ele>
        <time>2013-03-07T13:55:17Z</time>
      </trkpt>
      <trkpt lat="44.47538" lon="4.69826">
        <ele>62.142334</ele>
        <time>2013-03-07T13:55:36Z</time>
      </trkpt>
      <trkpt lat="44.47523" lon="4.69825">
        <ele>61.661743</ele>
        <time>2013-03-07T13:55:49Z</time>
      </trkpt>
      <trkpt lat="44.47507" lon="4.69824">
        <ele>62.142334</ele>
        <time>2013-03-07T13:56:04Z</time>
      </trkpt>
      <trkpt lat="44.47491" lon="4.69823">
        <ele>62.142334</ele>
        <time>2013-03-07T13:56:19Z</time>
      </trkpt>
      <trkpt lat="44.47469" lon="4.69821">
        <ele>62.142334</ele>
        <time>2013-03-07T13:56:39Z</time>
      </trkpt>
      <trkpt lat="44.47457" lon="4.69821">
        <ele>61.661743</ele>
        <time>2013-03-07T13:56:50Z</time>
      </trkpt>
      <trkpt lat="44.47456" lon="4.69821">
        <ele>62.142334</ele>
        <time>2013-03-07T13:56:51Z</time>
      </trkpt>
      <trkpt lat="44.47449" lon="4.69821">
        <ele>61.661743</ele>
        <time>2013-03-07T13:56:59Z</time>
      </trkpt>
      <trkpt lat="44.47425" lon="4.69821">
        <ele>62.142334</ele>
        <time>2013-03-07T13:57:22Z</time>
      </trkpt>
      <trkpt lat="44.47422" lon="4.69821">
        <ele>62.142334</ele>
        <time>2013-03-07T13:57:24Z</time>
      </trkpt>
      <trkpt lat="44.47393" lon="4.69818">
        <ele>62.142334</ele>
        <time>2013-03-07T13:57:50Z</time>
      </trkpt>
      <trkpt lat="44.47369" lon="4.69818">
        <ele>61.661743</ele>
        <time>2013-03-07T13:58:12Z</time>
      </trkpt>
      <trkpt lat="44.47347" lon="4.69816">
        <ele>61.661743</ele>
        <time>2013-03-07T13:58:31Z</time>
      </trkpt>
      <trkpt lat="44.47336" lon="4.69814">
        <ele>61.661743</ele>
        <time>2013-03-07T13:58:44Z</time>
      </trkpt>
      <trkpt lat="44.47317" lon="4.69812">
        <ele>61.661743</ele>
        <time>2013-03-07T13:59:01Z</time>
      </trkpt>
      <trkpt lat="44.47314" lon="4.69812">
        <ele>61.661743</ele>
        <time>2013-03-07T13:59:03Z</time>
      </trkpt>
      <trkpt lat="44.4731" lon="4.69807">
        <ele>62.142334</ele>
        <time>2013-03-07T13:59:17Z</time>
      </trkpt>
      <trkpt lat="44.47311" lon="4.69801">
        <ele>62.142334</ele>
        <time>2013-03-07T13:59:32Z</time>
      </trkpt>
      <trkpt lat="44.47313" lon="4.69794">
        <ele>62.142334</ele>
        <time>2013-03-07T13:59:38Z</time>
      </trkpt>
      <trkpt lat="44.4732" lon="4.69773">
        <ele>61.661743</ele>
        <time>2013-03-07T13:59:55Z</time>
      </trkpt>
      <trkpt lat="44.47321" lon="4.69751">
        <ele>61.18103</ele>
        <time>2013-03-07T14:00:09Z</time>
      </trkpt>
      <trkpt lat="44.47323" lon="4.6972">
        <ele>61.661743</ele>
        <time>2013-03-07T14:00:30Z</time>
      </trkpt>
      <trkpt lat="44.47322" lon="4.69692">
        <ele>61.661743</ele>
        <time>2013-03-07T14:00:48Z</time>
      </trkpt>
      <trkpt lat="44.47319" lon="4.69669">
        <ele>61.661743</ele>
        <time>2013-03-07T14:01:01Z</time>
      </trkpt>
      <trkpt lat="44.47303" lon="4.69653">
        <ele>61.661743</ele>
        <time>2013-03-07T14:01:19Z</time>
      </trkpt>
      <trkpt lat="44.47298" lon="4.6964">
        <ele>61.18103</ele>
        <time>2013-03-07T14:01:34Z</time>
      </trkpt>
      <trkpt lat="44.47296" lon="4.6964">
        <ele>61.661743</ele>
        <time>2013-03-07T14:01:38Z</time>
      </trkpt>
      <trkpt lat="44.47289" lon="4.6964">
        <ele>62.142334</ele>
        <time>2013-03-07T14:01:43Z</time>
      </trkpt>
      <trkpt lat="44.47286" lon="4.69638">
        <ele>61.661743</ele>
        <time>2013-03-07T14:01:47Z</time>
      </trkpt>
      <trkpt lat="44.4727" lon="4.69638">
        <ele>62.142334</ele>
        <time>2013-03-07T14:02:00Z</time>
      </trkpt>
      <trkpt lat="44.47263" lon="4.6964">
        <ele>62.142334</ele>
        <time>2013-03-07T14:02:06Z</time>
      </trkpt>
      <trkpt lat="44.47247" lon="4.69641">
        <ele>62.142334</ele>
        <time>2013-03-07T14:02:20Z</time>
      </trkpt>
      <trkpt lat="44.47236" lon="4.69642">
        <ele>62.142334</ele>
        <time>2013-03-07T14:02:30Z</time>
      </trkpt>
      <trkpt lat="44.47227" lon="4.69642">
        <ele>62.142334</ele>
        <time>2013-03-07T14:02:45Z</time>
      </trkpt>
      <trkpt lat="44.47209" lon="4.69644">
        <ele>61.661743</ele>
        <time>2013-03-07T14:03:01Z</time>
      </trkpt>
      <trkpt lat="44.47193" lon="4.69636">
        <ele>62.142334</ele>
        <time>2013-03-07T14:03:19Z</time>
      </trkpt>
      <trkpt lat="44.47194" lon="4.69631">
        <ele>62.142334</ele>
        <time>2013-03-07T14:03:24Z</time>
      </trkpt>
      <trkpt lat="44.47193" lon="4.69627">
        <ele>61.661743</ele>
        <time>2013-03-07T14:03:26Z</time>
      </trkpt>
      <trkpt lat="44.47191" lon="4.69604">
        <ele>62.142334</ele>
        <time>2013-03-07T14:03:39Z</time>
      </trkpt>
      <trkpt lat="44.47189" lon="4.69587">
        <ele>62.142334</ele>
        <time>2013-03-07T14:03:54Z</time>
      </trkpt>
      <trkpt lat="44.47187" lon="4.69562">
        <ele>62.622925</ele>
        <time>2013-03-07T14:04:10Z</time>
      </trkpt>
      <trkpt lat="44.47182" lon="4.69525">
        <ele>62.622925</ele>
        <time>2013-03-07T14:04:30Z</time>
      </trkpt>
      <trkpt lat="44.47179" lon="4.69505">
        <ele>63.584351</ele>
        <time>2013-03-07T14:04:46Z</time>
      </trkpt>
      <trkpt lat="44.47177" lon="4.69488">
        <ele>64.545654</ele>
        <time>2013-03-07T14:05:03Z</time>
      </trkpt>
      <trkpt lat="44.47176" lon="4.69472">
        <ele>65.987671</ele>
        <time>2013-03-07T14:05:16Z</time>
      </trkpt>
      <trkpt lat="44.47167" lon="4.69455">
        <ele>66.468262</ele>
        <time>2013-03-07T14:05:30Z</time>
      </trkpt>
      <trkpt lat="44.47163" lon="4.69453">
        <ele>66.948975</ele>
        <time>2013-03-07T14:05:33Z</time>
      </trkpt>
      <trkpt lat="44.47161" lon="4.69452">
        <ele>66.948975</ele>
        <time>2013-03-07T14:05:35Z</time>
      </trkpt>
      <trkpt lat="44.47155" lon="4.6945">
        <ele>66.948975</ele>
        <time>2013-03-07T14:05:47Z</time>
      </trkpt>
      <trkpt lat="44.47154" lon="4.6945">
        <ele>66.948975</ele>
        <time>2013-03-07T14:05:48Z</time>
      </trkpt>
      <trkpt lat="44.47144" lon="4.69453">
        <ele>66.948975</ele>
        <time>2013-03-07T14:05:54Z</time>
      </trkpt>
      <trkpt lat="44.4714" lon="4.69453">
        <ele>66.948975</ele>
        <time>2013-03-07T14:05:58Z</time>
      </trkpt>
      <trkpt lat="44.47132" lon="4.69451">
        <ele>67.429688</ele>
        <time>2013-03-07T14:06:07Z</time>
      </trkpt>
      <trkpt lat="44.47125" lon="4.69451">
        <ele>68.390869</ele>
        <time>2013-03-07T14:06:20Z</time>
      </trkpt>
      <trkpt lat="44.47123" lon="4.69452">
        <ele>68.390869</ele>
        <time>2013-03-07T14:06:23Z</time>
      </trkpt>
      <trkpt lat="44.47108" lon="4.69441">
        <ele>68.390869</ele>
        <time>2013-03-07T14:06:36Z</time>
      </trkpt>
      <trkpt lat="44.47088" lon="4.69429">
        <ele>68.390869</ele>
        <time>2013-03-07T14:06:55Z</time>
      </trkpt>
      <trkpt lat="44.47073" lon="4.69429">
        <ele>67.429688</ele>
        <time>2013-03-07T14:07:09Z</time>
      </trkpt>
      <trkpt lat="44.47071" lon="4.69427">
        <ele>67.429688</ele>
        <time>2013-03-07T14:07:11Z</time>
      </trkpt>
      <trkpt lat="44.47069" lon="4.69426">
        <ele>67.429688</ele>
        <time>2013-03-07T14:07:13Z</time>
      </trkpt>
      <trkpt lat="44.47058" lon="4.69422">
        <ele>66.948975</ele>
        <time>2013-03-07T14:07:22Z</time>
      </trkpt>
      <trkpt lat="44.47056" lon="4.69421">
        <ele>66.468262</ele>
        <time>2013-03-07T14:07:24Z</time>
      </trkpt>
      <trkpt lat="44.47054" lon="4.6942">
        <ele>66.948975</ele>
        <time>2013-03-07T14:07:26Z</time>
      </trkpt>
      <trkpt lat="44.47043" lon="4.69418">
        <ele>66.948975</ele>
        <time>2013-03-07T14:07:35Z</time>
      </trkpt>
      <trkpt lat="44.47039" lon="4.69415">
        <ele>66.468262</ele>
        <time>2013-03-07T14:07:39Z</time>
      </trkpt>
      <trkpt lat="44.47023" lon="4.69408">
        <ele>66.468262</ele>
        <time>2013-03-07T14:07:56Z</time>
      </trkpt>
      <trkpt lat="44.47014" lon="4.69402">
        <ele>66.468262</ele>
        <time>2013-03-07T14:08:05Z</time>
      </trkpt>
      <trkpt lat="44.47003" lon="4.69396">
        <ele>65.987671</ele>
        <time>2013-03-07T14:08:17Z</time>
      </trkpt>
      <trkpt lat="44.46995" lon="4.69394">
        <ele>65.987671</ele>
        <time>2013-03-07T14:08:24Z</time>
      </trkpt>
      <trkpt lat="44.46992" lon="4.69391">
        <ele>65.987671</ele>
        <time>2013-03-07T14:08:28Z</time>
      </trkpt>
      <trkpt lat="44.46987" lon="4.69391">
        <ele>65.50708</ele>
        <time>2013-03-07T14:08:32Z</time>
      </trkpt>
      <trkpt lat="44.46977" lon="4.69388">
        <ele>65.987671</ele>
        <time>2013-03-07T14:08:41Z</time>
      </trkpt>
      <trkpt lat="44.46966" lon="4.69385">
        <ele>65.50708</ele>
        <time>2013-03-07T14:08:51Z</time>
      </trkpt>
      <trkpt lat="44.46963" lon="4.69382">
        <ele>65.987671</ele>
        <time>2013-03-07T14:08:55Z</time>
      </trkpt>
      <trkpt lat="44.46944" lon="4.69374">
        <ele>65.50708</ele>
        <time>2013-03-07T14:09:13Z</time>
      </trkpt>
      <trkpt lat="44.4694" lon="4.69371">
        <ele>65.50708</ele>
        <time>2013-03-07T14:09:17Z</time>
      </trkpt>
      <trkpt lat="44.46923" lon="4.69361">
        <ele>65.987671</ele>
        <time>2013-03-07T14:09:36Z</time>
      </trkpt>
      <trkpt lat="44.46915" lon="4.69355">
        <ele>65.987671</ele>
        <time>2013-03-07T14:09:44Z</time>
      </trkpt>
      <trkpt lat="44.46905" lon="4.69349">
        <ele>66.468262</ele>
        <time>2013-03-07T14:09:56Z</time>
      </trkpt>
      <trkpt lat="44.46887" lon="4.69339">
        <ele>65.987671</ele>
        <time>2013-03-07T14:10:13Z</time>
      </trkpt>
      <trkpt lat="44.46884" lon="4.69337">
        <ele>65.987671</ele>
        <time>2013-03-07T14:10:16Z</time>
      </trkpt>
      <trkpt lat="44.46874" lon="4.69334">
        <ele>65.987671</ele>
        <time>2013-03-07T14:10:25Z</time>
      </trkpt>
      <trkpt lat="44.46853" lon="4.69324">
        <ele>65.987671</ele>
        <time>2013-03-07T14:10:45Z</time>
      </trkpt>
      <trkpt lat="44.46837" lon="4.6932">
        <ele>65.987671</ele>
        <time>2013-03-07T14:11:00Z</time>
      </trkpt>
      <trkpt lat="44.46812" lon="4.69301">
        <ele>65.987671</ele>
        <time>2013-03-07T14:11:27Z</time>
      </trkpt>
      <trkpt lat="44.46809" lon="4.69298">
        <ele>66.468262</ele>
        <time>2013-03-07T14:11:31Z</time>
      </trkpt>
      <trkpt lat="44.46808" lon="4.69296">
        <ele>65.987671</ele>
        <time>2013-03-07T14:11:33Z</time>
      </trkpt>
      <trkpt lat="44.46794" lon="4.69284">
        <ele>66.948975</ele>
        <time>2013-03-07T14:11:47Z</time>
      </trkpt>
      <trkpt lat="44.46786" lon="4.69272">
        <ele>66.948975</ele>
        <time>2013-03-07T14:11:58Z</time>
      </trkpt>
      <trkpt lat="44.46782" lon="4.69268">
        <ele>66.468262</ele>
        <time>2013-03-07T14:12:02Z</time>
      </trkpt>
      <trkpt lat="44.46774" lon="4.69254">
        <ele>67.429688</ele>
        <time>2013-03-07T14:12:14Z</time>
      </trkpt>
      <trkpt lat="44.46765" lon="4.69242">
        <ele>67.910278</ele>
        <time>2013-03-07T14:12:26Z</time>
      </trkpt>
      <trkpt lat="44.46761" lon="4.69237">
        <ele>68.390869</ele>
        <time>2013-03-07T14:12:33Z</time>
      </trkpt>
      <trkpt lat="44.46755" lon="4.69232">
        <ele>68.390869</ele>
        <time>2013-03-07T14:12:38Z</time>
      </trkpt>
      <trkpt lat="44.4675" lon="4.69226">
        <ele>68.871582</ele>
        <time>2013-03-07T14:12:44Z</time>
      </trkpt>
      <trkpt lat="44.46748" lon="4.69225">
        <ele>68.871582</ele>
        <time>2013-03-07T14:12:46Z</time>
      </trkpt>
      <trkpt lat="44.46744" lon="4.6922">
        <ele>69.352295</ele>
        <time>2013-03-07T14:12:51Z</time>
      </trkpt>
      <trkpt lat="44.46731" lon="4.69214">
        <ele>69.832886</ele>
        <time>2013-03-07T14:13:05Z</time>
      </trkpt>
      <trkpt lat="44.46731" lon="4.69215">
        <ele>69.352295</ele>
        <time>2013-03-07T14:13:57Z</time>
      </trkpt>
      <trkpt lat="44.46737" lon="4.69215">
        <ele>69.832886</ele>
        <time>2013-03-07T14:15:08Z</time>
      </trkpt>
      <trkpt lat="44.46741" lon="4.69216">
        <ele>70.313477</ele>
        <time>2013-03-07T14:15:21Z</time>
      </trkpt>
      <trkpt lat="44.46752" lon="4.69217">
        <ele>72.236206</ele>
        <time>2013-03-07T14:15:35Z</time>
      </trkpt>
      <trkpt lat="44.46762" lon="4.6921">
        <ele>74.158813</ele>
        <time>2013-03-07T14:15:49Z</time>
      </trkpt>
      <trkpt lat="44.46763" lon="4.69195">
        <ele>76.081421</ele>
        <time>2013-03-07T14:16:04Z</time>
      </trkpt>
      <trkpt lat="44.4676" lon="4.69188">
        <ele>76.562134</ele>
        <time>2013-03-07T14:16:11Z</time>
      </trkpt>
      <trkpt lat="44.4676" lon="4.69178">
        <ele>77.042847</ele>
        <time>2013-03-07T14:16:18Z</time>
      </trkpt>
      <trkpt lat="44.46763" lon="4.6915">
        <ele>78.484741</ele>
        <time>2013-03-07T14:16:37Z</time>
      </trkpt>
      <trkpt lat="44.46765" lon="4.69132">
        <ele>78.004028</ele>
        <time>2013-03-07T14:16:51Z</time>
      </trkpt>
      <trkpt lat="44.46771" lon="4.69106">
        <ele>78.484741</ele>
        <time>2013-03-07T14:17:10Z</time>
      </trkpt>
      <trkpt lat="44.46775" lon="4.6909">
        <ele>78.004028</ele>
        <time>2013-03-07T14:17:22Z</time>
      </trkpt>
      <trkpt lat="44.46777" lon="4.69081">
        <ele>77.042847</ele>
        <time>2013-03-07T14:17:30Z</time>
      </trkpt>
      <trkpt lat="44.46777" lon="4.69076">
        <ele>77.042847</ele>
        <time>2013-03-07T14:17:33Z</time>
      </trkpt>
      <trkpt lat="44.46782" lon="4.69051">
        <ele>76.562134</ele>
        <time>2013-03-07T14:17:51Z</time>
      </trkpt>
      <trkpt lat="44.46783" lon="4.69049">
        <ele>76.081421</ele>
        <time>2013-03-07T14:17:53Z</time>
      </trkpt>
      <trkpt lat="44.46784" lon="4.69036">
        <ele>75.60083</ele>
        <time>2013-03-07T14:18:05Z</time>
      </trkpt>
      <trkpt lat="44.46787" lon="4.69024">
        <ele>74.639526</ele>
        <time>2013-03-07T14:18:18Z</time>
      </trkpt>
      <trkpt lat="44.46788" lon="4.69021">
        <ele>74.639526</ele>
        <time>2013-03-07T14:18:20Z</time>
      </trkpt>
      <trkpt lat="44.46792" lon="4.69008">
        <ele>73.197632</ele>
        <time>2013-03-07T14:18:28Z</time>
      </trkpt>
      <trkpt lat="44.46796" lon="4.68997">
        <ele>72.236206</ele>
        <time>2013-03-07T14:18:42Z</time>
      </trkpt>
      <trkpt lat="44.46801" lon="4.68973">
        <ele>70.313477</ele>
        <time>2013-03-07T14:18:58Z</time>
      </trkpt>
      <trkpt lat="44.46807" lon="4.68963">
        <ele>69.352295</ele>
        <time>2013-03-07T14:19:06Z</time>
      </trkpt>
      <trkpt lat="44.46812" lon="4.68949">
        <ele>68.390869</ele>
        <time>2013-03-07T14:19:19Z</time>
      </trkpt>
      <trkpt lat="44.46814" lon="4.68942">
        <ele>67.429688</ele>
        <time>2013-03-07T14:19:24Z</time>
      </trkpt>
      <trkpt lat="44.46828" lon="4.68927">
        <ele>67.910278</ele>
        <time>2013-03-07T14:19:40Z</time>
      </trkpt>
      <trkpt lat="44.46847" lon="4.68896">
        <ele>67.429688</ele>
        <time>2013-03-07T14:20:04Z</time>
      </trkpt>
      <trkpt lat="44.46858" lon="4.68877">
        <ele>67.910278</ele>
        <time>2013-03-07T14:20:20Z</time>
      </trkpt>
      <trkpt lat="44.46859" lon="4.68876">
        <ele>67.910278</ele>
        <time>2013-03-07T14:20:22Z</time>
      </trkpt>
      <trkpt lat="44.46866" lon="4.68868">
        <ele>69.832886</ele>
        <time>2013-03-07T14:20:34Z</time>
      </trkpt>
      <trkpt lat="44.46873" lon="4.68859">
        <ele>70.794189</ele>
        <time>2013-03-07T14:20:45Z</time>
      </trkpt>
      <trkpt lat="44.46887" lon="4.68844">
        <ele>71.274902</ele>
        <time>2013-03-07T14:21:02Z</time>
      </trkpt>
      <trkpt lat="44.46892" lon="4.68837">
        <ele>72.236206</ele>
        <time>2013-03-07T14:21:09Z</time>
      </trkpt>
      <trkpt lat="44.46899" lon="4.68826">
        <ele>73.197632</ele>
        <time>2013-03-07T14:21:22Z</time>
      </trkpt>
      <trkpt lat="44.469" lon="4.68822">
        <ele>73.197632</ele>
        <time>2013-03-07T14:21:27Z</time>
      </trkpt>
      <trkpt lat="44.46913" lon="4.68811">
        <ele>72.236206</ele>
        <time>2013-03-07T14:21:45Z</time>
      </trkpt>
      <trkpt lat="44.46926" lon="4.68804">
        <ele>71.755493</ele>
        <time>2013-03-07T14:22:01Z</time>
      </trkpt>
      <trkpt lat="44.46928" lon="4.68801">
        <ele>71.755493</ele>
        <time>2013-03-07T14:22:46Z</time>
      </trkpt>
      <trkpt lat="44.46931" lon="4.68801">
        <ele>72.236206</ele>
        <time>2013-03-07T14:23:09Z</time>
      </trkpt>
      <trkpt lat="44.46934" lon="4.68806">
        <ele>73.197632</ele>
        <time>2013-03-07T14:23:19Z</time>
      </trkpt>
      <trkpt lat="44.46939" lon="4.68811">
        <ele>74.158813</ele>
        <time>2013-03-07T14:23:31Z</time>
      </trkpt>
      <trkpt lat="44.46944" lon="4.68815">
        <ele>75.120239</ele>
        <time>2013-03-07T14:23:42Z</time>
      </trkpt>
      <trkpt lat="44.46951" lon="4.6882">
        <ele>76.081421</ele>
        <time>2013-03-07T14:24:21Z</time>
      </trkpt>
      <trkpt lat="44.4696" lon="4.68826">
        <ele>78.484741</ele>
        <time>2013-03-07T14:24:35Z</time>
      </trkpt>
      <trkpt lat="44.46972" lon="4.68833">
        <ele>80.888184</ele>
        <time>2013-03-07T14:24:49Z</time>
      </trkpt>
      <trkpt lat="44.46985" lon="4.68837">
        <ele>82.810791</ele>
        <time>2013-03-07T14:25:03Z</time>
      </trkpt>
      <trkpt lat="44.46997" lon="4.68842">
        <ele>84.252686</ele>
        <time>2013-03-07T14:25:18Z</time>
      </trkpt>
      <trkpt lat="44.47005" lon="4.68847">
        <ele>86.175293</ele>
        <time>2013-03-07T14:25:30Z</time>
      </trkpt>
      <trkpt lat="44.47014" lon="4.68856">
        <ele>88.098022</ele>
        <time>2013-03-07T14:25:46Z</time>
      </trkpt>
      <trkpt lat="44.47024" lon="4.68866">
        <ele>89.539917</ele>
        <time>2013-03-07T14:26:00Z</time>
      </trkpt>
      <trkpt lat="44.47033" lon="4.68874">
        <ele>90.981934</ele>
        <time>2013-03-07T14:26:15Z</time>
      </trkpt>
      <trkpt lat="44.47042" lon="4.68882">
        <ele>93.385132</ele>
        <time>2013-03-07T14:26:30Z</time>
      </trkpt>
      <trkpt lat="44.47051" lon="4.68884">
        <ele>95.307739</ele>
        <time>2013-03-07T14:26:44Z</time>
      </trkpt>
      <trkpt lat="44.47056" lon="4.68889">
        <ele>95.788452</ele>
        <time>2013-03-07T14:27:09Z</time>
      </trkpt>
      <trkpt lat="44.47059" lon="4.68893">
        <ele>95.307739</ele>
        <time>2013-03-07T14:27:37Z</time>
      </trkpt>
      <trkpt lat="44.4706" lon="4.68894">
        <ele>95.788452</ele>
        <time>2013-03-07T14:28:00Z</time>
      </trkpt>
      <trkpt lat="44.47061" lon="4.68895">
        <ele>95.788452</ele>
        <time>2013-03-07T14:28:35Z</time>
      </trkpt>
      <trkpt lat="44.47063" lon="4.68897">
        <ele>96.269287</ele>
        <time>2013-03-07T14:28:55Z</time>
      </trkpt>
      <trkpt lat="44.47065" lon="4.68898">
        <ele>96.749878</ele>
        <time>2013-03-07T14:29:12Z</time>
      </trkpt>
      <trkpt lat="44.47069" lon="4.689">
        <ele>98.191895</ele>
        <time>2013-03-07T14:29:29Z</time>
      </trkpt>
      <trkpt lat="44.47075" lon="4.68904">
        <ele>100.595093</ele>
        <time>2013-03-07T14:29:42Z</time>
      </trkpt>
      <trkpt lat="44.47089" lon="4.68907">
        <ele>102.998291</ele>
        <time>2013-03-07T14:30:02Z</time>
      </trkpt>
      <trkpt lat="44.47105" lon="4.68919">
        <ele>105.882446</ele>
        <time>2013-03-07T14:30:19Z</time>
      </trkpt>
      <trkpt lat="44.47109" lon="4.68928">
        <ele>107.805054</ele>
        <time>2013-03-07T14:30:33Z</time>
      </trkpt>
      <trkpt lat="44.47111" lon="4.68943">
        <ele>110.688843</ele>
        <time>2013-03-07T14:30:54Z</time>
      </trkpt>
      <trkpt lat="44.47106" lon="4.68953">
        <ele>113.092285</ele>
        <time>2013-03-07T14:31:16Z</time>
      </trkpt>
      <trkpt lat="44.47104" lon="4.6896">
        <ele>115.976196</ele>
        <time>2013-03-07T14:31:31Z</time>
      </trkpt>
      <trkpt lat="44.47112" lon="4.68968">
        <ele>117.898804</ele>
        <time>2013-03-07T14:31:49Z</time>
      </trkpt>
      <trkpt lat="44.47107" lon="4.6897">
        <ele>119.34082</ele>
        <time>2013-03-07T14:32:01Z</time>
      </trkpt>
      <trkpt lat="44.47098" lon="4.68968">
        <ele>120.302124</ele>
        <time>2013-03-07T14:32:16Z</time>
      </trkpt>
      <trkpt lat="44.47092" lon="4.68969">
        <ele>121.26355</ele>
        <time>2013-03-07T14:32:30Z</time>
      </trkpt>
      <trkpt lat="44.47087" lon="4.68973">
        <ele>123.666748</ele>
        <time>2013-03-07T14:33:29Z</time>
      </trkpt>
      <trkpt lat="44.47087" lon="4.68974">
        <ele>123.666748</ele>
        <time>2013-03-07T14:33:51Z</time>
      </trkpt>
      <trkpt lat="44.47087" lon="4.68976">
        <ele>123.186157</ele>
        <time>2013-03-07T14:35:06Z</time>
      </trkpt>
      <trkpt lat="44.47074" lon="4.6896">
        <ele>125.108765</ele>
        <time>2013-03-07T14:37:02Z</time>
      </trkpt>
      <trkpt lat="44.47069" lon="4.68953">
        <ele>126.069946</ele>
        <time>2013-03-07T14:37:14Z</time>
      </trkpt>
      <trkpt lat="44.47068" lon="4.68951">
        <ele>126.069946</ele>
        <time>2013-03-07T14:37:17Z</time>
      </trkpt>
      <trkpt lat="44.47067" lon="4.68952">
        <ele>126.069946</ele>
        <time>2013-03-07T14:37:32Z</time>
      </trkpt>
      <trkpt lat="44.47066" lon="4.68952">
        <ele>126.069946</ele>
        <time>2013-03-07T14:39:26Z</time>
      </trkpt>
      <trkpt lat="44.47066" lon="4.68954">
        <ele>125.589355</ele>
        <time>2013-03-07T14:39:42Z</time>
      </trkpt>
      <trkpt lat="44.4707" lon="4.68961">
        <ele>124.147339</ele>
        <time>2013-03-07T14:40:00Z</time>
      </trkpt>
      <trkpt lat="44.47077" lon="4.68975">
        <ele>123.666748</ele>
        <time>2013-03-07T14:40:24Z</time>
      </trkpt>
      <trkpt lat="44.47079" lon="4.68975">
        <ele>121.744141</ele>
        <time>2013-03-07T14:40:31Z</time>
      </trkpt>
      <trkpt lat="44.47084" lon="4.68979">
        <ele>122.224731</ele>
        <time>2013-03-07T14:40:35Z</time>
      </trkpt>
      <trkpt lat="44.47095" lon="4.68993">
        <ele>124.628052</ele>
        <time>2013-03-07T14:40:52Z</time>
      </trkpt>
      <trkpt lat="44.47104" lon="4.69005">
        <ele>126.069946</ele>
        <time>2013-03-07T14:41:11Z</time>
      </trkpt>
      <trkpt lat="44.4711" lon="4.69017">
        <ele>126.550659</ele>
        <time>2013-03-07T14:41:27Z</time>
      </trkpt>
      <trkpt lat="44.47128" lon="4.6902">
        <ele>127.992554</ele>
        <time>2013-03-07T14:41:47Z</time>
      </trkpt>
      <trkpt lat="44.47137" lon="4.69023">
        <ele>130.395996</ele>
        <time>2013-03-07T14:42:09Z</time>
      </trkpt>
      <trkpt lat="44.47145" lon="4.69031">
        <ele>132.799316</ele>
        <time>2013-03-07T14:42:27Z</time>
      </trkpt>
      <trkpt lat="44.47142" lon="4.69041">
        <ele>134.721924</ele>
        <time>2013-03-07T14:42:44Z</time>
      </trkpt>
      <trkpt lat="44.4714" lon="4.69043">
        <ele>134.721924</ele>
        <time>2013-03-07T14:42:47Z</time>
      </trkpt>
      <trkpt lat="44.47135" lon="4.6905">
        <ele>135.202515</ele>
        <time>2013-03-07T14:42:59Z</time>
      </trkpt>
      <trkpt lat="44.47125" lon="4.69052">
        <ele>136.644653</ele>
        <time>2013-03-07T14:43:15Z</time>
      </trkpt>
      <trkpt lat="44.47121" lon="4.69059">
        <ele>137.605835</ele>
        <time>2013-03-07T14:43:36Z</time>
      </trkpt>
      <trkpt lat="44.47113" lon="4.69057">
        <ele>138.567261</ele>
        <time>2013-03-07T14:43:45Z</time>
      </trkpt>
      <trkpt lat="44.47106" lon="4.69054">
        <ele>139.047852</ele>
        <time>2013-03-07T14:43:54Z</time>
      </trkpt>
      <trkpt lat="44.471" lon="4.69046">
        <ele>140.489868</ele>
        <time>2013-03-07T14:44:09Z</time>
      </trkpt>
      <trkpt lat="44.47094" lon="4.69038">
        <ele>140.970459</ele>
        <time>2013-03-07T14:44:20Z</time>
      </trkpt>
      <trkpt lat="44.47083" lon="4.69033">
        <ele>141.931763</ele>
        <time>2013-03-07T14:44:38Z</time>
      </trkpt>
      <trkpt lat="44.47075" lon="4.6903">
        <ele>143.373657</ele>
        <time>2013-03-07T14:44:49Z</time>
      </trkpt>
      <trkpt lat="44.47067" lon="4.69023">
        <ele>145.296387</ele>
        <time>2013-03-07T14:45:03Z</time>
      </trkpt>
      <trkpt lat="44.4706" lon="4.69019">
        <ele>146.738403</ele>
        <time>2013-03-07T14:45:18Z</time>
      </trkpt>
      <trkpt lat="44.47054" lon="4.69014">
        <ele>148.18042</ele>
        <time>2013-03-07T14:45:31Z</time>
      </trkpt>
      <trkpt lat="44.4705" lon="4.69015">
        <ele>149.141602</ele>
        <time>2013-03-07T14:46:01Z</time>
      </trkpt>
      <trkpt lat="44.4704" lon="4.69011">
        <ele>151.064209</ele>
        <time>2013-03-07T14:46:30Z</time>
      </trkpt>
      <trkpt lat="44.47035" lon="4.69008">
        <ele>152.025757</ele>
        <time>2013-03-07T14:46:49Z</time>
      </trkpt>
      <trkpt lat="44.47031" lon="4.69006">
        <ele>152.506348</ele>
        <time>2013-03-07T14:47:02Z</time>
      </trkpt>
      <trkpt lat="44.47033" lon="4.69006">
        <ele>152.506348</ele>
        <time>2013-03-07T14:47:54Z</time>
      </trkpt>
      <trkpt lat="44.47027" lon="4.69006">
        <ele>154.428955</ele>
        <time>2013-03-07T14:48:29Z</time>
      </trkpt>
      <trkpt lat="44.47021" lon="4.69009">
        <ele>156.832153</ele>
        <time>2013-03-07T14:48:45Z</time>
      </trkpt>
      <trkpt lat="44.47018" lon="4.69015">
        <ele>158.754761</ele>
        <time>2013-03-07T14:48:56Z</time>
      </trkpt>
      <trkpt lat="44.47015" lon="4.69015">
        <ele>161.158203</ele>
        <time>2013-03-07T14:49:22Z</time>
      </trkpt>
      <trkpt lat="44.47012" lon="4.69016">
        <ele>162.119507</ele>
        <time>2013-03-07T14:49:38Z</time>
      </trkpt>
      <trkpt lat="44.47011" lon="4.69017">
        <ele>163.080811</ele>
        <time>2013-03-07T14:49:57Z</time>
      </trkpt>
      <trkpt lat="44.47009" lon="4.69021">
        <ele>165.003418</ele>
        <time>2013-03-07T14:50:36Z</time>
      </trkpt>
      <trkpt lat="44.47007" lon="4.6902">
        <ele>165.003418</ele>
        <time>2013-03-07T14:50:55Z</time>
      </trkpt>
      <trkpt lat="44.47004" lon="4.69022">
        <ele>165.964722</ele>
        <time>2013-03-07T14:51:32Z</time>
      </trkpt>
      <trkpt lat="44.47001" lon="4.69022">
        <ele>166.926025</ele>
        <time>2013-03-07T14:51:43Z</time>
      </trkpt>
      <trkpt lat="44.46993" lon="4.69017">
        <ele>168.848755</ele>
        <time>2013-03-07T14:51:57Z</time>
      </trkpt>
      <trkpt lat="44.46988" lon="4.69016">
        <ele>170.771362</ele>
        <time>2013-03-07T14:52:13Z</time>
      </trkpt>
      <trkpt lat="44.46979" lon="4.69014">
        <ele>171.732666</ele>
        <time>2013-03-07T14:52:28Z</time>
      </trkpt>
      <trkpt lat="44.46978" lon="4.69018">
        <ele>173.174683</ele>
        <time>2013-03-07T14:52:33Z</time>
      </trkpt>
      <trkpt lat="44.46974" lon="4.69027">
        <ele>175.577881</ele>
        <time>2013-03-07T14:52:45Z</time>
      </trkpt>
      <trkpt lat="44.46974" lon="4.6903">
        <ele>176.058594</ele>
        <time>2013-03-07T14:53:02Z</time>
      </trkpt>
      <trkpt lat="44.46974" lon="4.69026">
        <ele>175.09729</ele>
        <time>2013-03-07T14:53:27Z</time>
      </trkpt>
      <trkpt lat="44.46975" lon="4.69024">
        <ele>174.616577</ele>
        <time>2013-03-07T14:53:30Z</time>
      </trkpt>
      <trkpt lat="44.46978" lon="4.69021">
        <ele>173.174683</ele>
        <time>2013-03-07T14:53:45Z</time>
      </trkpt>
      <trkpt lat="44.46976" lon="4.69021">
        <ele>173.655273</ele>
        <time>2013-03-07T14:54:23Z</time>
      </trkpt>
      <trkpt lat="44.46975" lon="4.69029">
        <ele>175.577881</ele>
        <time>2013-03-07T14:54:38Z</time>
      </trkpt>
      <trkpt lat="44.46973" lon="4.69032">
        <ele>176.058594</ele>
        <time>2013-03-07T14:55:03Z</time>
      </trkpt>
      <trkpt lat="44.46973" lon="4.69032">
        <ele>175.577881</ele>
        <time>2013-03-07T14:55:35Z</time>
      </trkpt>
      <trkpt lat="44.46972" lon="4.69033">
        <ele>175.577881</ele>
        <time>2013-03-07T14:56:04Z</time>
      </trkpt>
      <trkpt lat="44.46972" lon="4.69033">
        <ele>175.577881</ele>
        <time>2013-03-07T14:56:41Z</time>
      </trkpt>
      <trkpt lat="44.46972" lon="4.69034">
        <ele>176.058594</ele>
        <time>2013-03-07T14:57:12Z</time>
      </trkpt>
      <trkpt lat="44.46974" lon="4.6904">
        <ele>177.981201</ele>
        <time>2013-03-07T14:57:29Z</time>
      </trkpt>
      <trkpt lat="44.46978" lon="4.69043">
        <ele>179.903809</ele>
        <time>2013-03-07T14:57:51Z</time>
      </trkpt>
      <trkpt lat="44.4698" lon="4.69044">
        <ele>180.384521</ele>
        <time>2013-03-07T14:58:20Z</time>
      </trkpt>
      <trkpt lat="44.4698" lon="4.69046">
        <ele>180.865234</ele>
        <time>2013-03-07T14:58:37Z</time>
      </trkpt>
      <trkpt lat="44.4698" lon="4.6905">
        <ele>182.787842</ele>
        <time>2013-03-07T14:58:56Z</time>
      </trkpt>
      <trkpt lat="44.46977" lon="4.69054">
        <ele>184.710571</ele>
        <time>2013-03-07T14:59:08Z</time>
      </trkpt>
      <trkpt lat="44.46974" lon="4.69064">
        <ele>188.075073</ele>
        <time>2013-03-07T14:59:21Z</time>
      </trkpt>
      <trkpt lat="44.46973" lon="4.69067">
        <ele>188.075073</ele>
        <time>2013-03-07T14:59:37Z</time>
      </trkpt>
      <trkpt lat="44.46974" lon="4.69068">
        <ele>188.075073</ele>
        <time>2013-03-07T14:59:53Z</time>
      </trkpt>
      <trkpt lat="44.46974" lon="4.69066">
        <ele>187.59436</ele>
        <time>2013-03-07T15:00:12Z</time>
      </trkpt>
      <trkpt lat="44.46974" lon="4.69067">
        <ele>187.59436</ele>
        <time>2013-03-07T15:00:33Z</time>
      </trkpt>
      <trkpt lat="44.46974" lon="4.69066">
        <ele>188.075073</ele>
        <time>2013-03-07T15:00:48Z</time>
      </trkpt>
      <trkpt lat="44.46974" lon="4.69066">
        <ele>187.59436</ele>
        <time>2013-03-07T15:01:35Z</time>
      </trkpt>
      <trkpt lat="44.46974" lon="4.69065">
        <ele>187.59436</ele>
        <time>2013-03-07T15:01:54Z</time>
      </trkpt>
      <trkpt lat="44.46973" lon="4.69065">
        <ele>187.59436</ele>
        <time>2013-03-07T15:02:27Z</time>
      </trkpt>
      <trkpt lat="44.46974" lon="4.69069">
        <ele>188.075073</ele>
        <time>2013-03-07T15:02:58Z</time>
      </trkpt>
      <trkpt lat="44.46974" lon="4.69078">
        <ele>190.478394</ele>
        <time>2013-03-07T15:03:17Z</time>
      </trkpt>
      <trkpt lat="44.46977" lon="4.69081">
        <ele>191.920288</ele>
        <time>2013-03-07T15:03:30Z</time>
      </trkpt>
      <trkpt lat="44.46982" lon="4.6909">
        <ele>192.881714</ele>
        <time>2013-03-07T15:03:44Z</time>
      </trkpt>
      <trkpt lat="44.46982" lon="4.69094">
        <ele>194.32373</ele>
        <time>2013-03-07T15:04:01Z</time>
      </trkpt>
      <trkpt lat="44.46982" lon="4.69094">
        <ele>194.32373</ele>
        <time>2013-03-07T15:04:23Z</time>
      </trkpt>
      <trkpt lat="44.46982" lon="4.69095">
        <ele>194.32373</ele>
        <time>2013-03-07T15:04:45Z</time>
      </trkpt>
      <trkpt lat="44.46983" lon="4.69097">
        <ele>193.843018</ele>
        <time>2013-03-07T15:05:16Z</time>
      </trkpt>
      <trkpt lat="44.46983" lon="4.69101">
        <ele>194.32373</ele>
        <time>2013-03-07T15:05:36Z</time>
      </trkpt>
      <trkpt lat="44.46987" lon="4.69102">
        <ele>193.843018</ele>
        <time>2013-03-07T15:05:51Z</time>
      </trkpt>
      <trkpt lat="44.46992" lon="4.69106">
        <ele>192.401123</ele>
        <time>2013-03-07T15:06:07Z</time>
      </trkpt>
      <trkpt lat="44.46994" lon="4.69109">
        <ele>192.401123</ele>
        <time>2013-03-07T15:06:23Z</time>
      </trkpt>
      <trkpt lat="44.46998" lon="4.69114">
        <ele>191.439575</ele>
        <time>2013-03-07T15:06:39Z</time>
      </trkpt>
      <trkpt lat="44.47" lon="4.69116">
        <ele>190.958984</ele>
        <time>2013-03-07T15:07:00Z</time>
      </trkpt>
      <trkpt lat="44.47003" lon="4.69117">
        <ele>190.478394</ele>
        <time>2013-03-07T15:07:24Z</time>
      </trkpt>
      <trkpt lat="44.47007" lon="4.6912">
        <ele>189.036377</ele>
        <time>2013-03-07T15:07:40Z</time>
      </trkpt>
      <trkpt lat="44.4701" lon="4.69123">
        <ele>188.075073</ele>
        <time>2013-03-07T15:07:54Z</time>
      </trkpt>
      <trkpt lat="44.47015" lon="4.69127">
        <ele>187.11377</ele>
        <time>2013-03-07T15:08:06Z</time>
      </trkpt>
      <trkpt lat="44.47016" lon="4.69127">
        <ele>186.633179</ele>
        <time>2013-03-07T15:08:35Z</time>
      </trkpt>
      <trkpt lat="44.47016" lon="4.6913">
        <ele>186.152466</ele>
        <time>2013-03-07T15:09:01Z</time>
      </trkpt>
      <trkpt lat="44.47018" lon="4.69131">
        <ele>186.152466</ele>
        <time>2013-03-07T15:09:14Z</time>
      </trkpt>
      <trkpt lat="44.47023" lon="4.69139">
        <ele>184.229858</ele>
        <time>2013-03-07T15:09:28Z</time>
      </trkpt>
      <trkpt lat="44.47026" lon="4.69141">
        <ele>183.749023</ele>
        <time>2013-03-07T15:09:33Z</time>
      </trkpt>
      <trkpt lat="44.4703" lon="4.69154">
        <ele>182.307129</ele>
        <time>2013-03-07T15:09:48Z</time>
      </trkpt>
      <trkpt lat="44.47034" lon="4.69169">
        <ele>182.787842</ele>
        <time>2013-03-07T15:10:04Z</time>
      </trkpt>
      <trkpt lat="44.47045" lon="4.6918">
        <ele>182.787842</ele>
        <time>2013-03-07T15:10:21Z</time>
      </trkpt>
      <trkpt lat="44.47055" lon="4.69187">
        <ele>182.307129</ele>
        <time>2013-03-07T15:10:35Z</time>
      </trkpt>
      <trkpt lat="44.47064" lon="4.69194">
        <ele>181.345825</ele>
        <time>2013-03-07T15:10:48Z</time>
      </trkpt>
      <trkpt lat="44.47076" lon="4.692">
        <ele>180.865234</ele>
        <time>2013-03-07T15:11:04Z</time>
      </trkpt>
      <trkpt lat="44.47086" lon="4.69206">
        <ele>180.384521</ele>
        <time>2013-03-07T15:11:19Z</time>
      </trkpt>
      <trkpt lat="44.47094" lon="4.69215">
        <ele>179.903809</ele>
        <time>2013-03-07T15:11:32Z</time>
      </trkpt>
      <trkpt lat="44.47103" lon="4.69222">
        <ele>179.423218</ele>
        <time>2013-03-07T15:11:47Z</time>
      </trkpt>
      <trkpt lat="44.47119" lon="4.69227">
        <ele>179.423218</ele>
        <time>2013-03-07T15:12:06Z</time>
      </trkpt>
      <trkpt lat="44.4713" lon="4.69227">
        <ele>179.423218</ele>
        <time>2013-03-07T15:12:19Z</time>
      </trkpt>
      <trkpt lat="44.47146" lon="4.69229">
        <ele>179.423218</ele>
        <time>2013-03-07T15:12:37Z</time>
      </trkpt>
      <trkpt lat="44.47156" lon="4.69228">
        <ele>179.423218</ele>
        <time>2013-03-07T15:12:51Z</time>
      </trkpt>
      <trkpt lat="44.47164" lon="4.69225">
        <ele>179.423218</ele>
        <time>2013-03-07T15:13:02Z</time>
      </trkpt>
      <trkpt lat="44.47174" lon="4.69229">
        <ele>180.865234</ele>
        <time>2013-03-07T15:13:17Z</time>
      </trkpt>
      <trkpt lat="44.47179" lon="4.69234">
        <ele>180.384521</ele>
        <time>2013-03-07T15:13:30Z</time>
      </trkpt>
      <trkpt lat="44.4718" lon="4.69233">
        <ele>180.384521</ele>
        <time>2013-03-07T15:14:07Z</time>
      </trkpt>
      <trkpt lat="44.47181" lon="4.69233">
        <ele>180.865234</ele>
        <time>2013-03-07T15:14:29Z</time>
      </trkpt>
      <trkpt lat="44.47185" lon="4.69233">
        <ele>180.384521</ele>
        <time>2013-03-07T15:14:51Z</time>
      </trkpt>
      <trkpt lat="44.47185" lon="4.69231">
        <ele>179.903809</ele>
        <time>2013-03-07T15:15:10Z</time>
      </trkpt>
      <trkpt lat="44.4719" lon="4.69233">
        <ele>178.942627</ele>
        <time>2013-03-07T15:15:35Z</time>
      </trkpt>
      <trkpt lat="44.47193" lon="4.69229">
        <ele>177.981201</ele>
        <time>2013-03-07T15:15:48Z</time>
      </trkpt>
      <trkpt lat="44.47196" lon="4.69228">
        <ele>176.539307</ele>
        <time>2013-03-07T15:16:07Z</time>
      </trkpt>
      <trkpt lat="44.472" lon="4.69227">
        <ele>175.09729</ele>
        <time>2013-03-07T15:16:21Z</time>
      </trkpt>
      <trkpt lat="44.4721" lon="4.6923">
        <ele>172.69397</ele>
        <time>2013-03-07T15:16:36Z</time>
      </trkpt>
      <trkpt lat="44.47216" lon="4.69228">
        <ele>171.732666</ele>
        <time>2013-03-07T15:16:50Z</time>
      </trkpt>
      <trkpt lat="44.47221" lon="4.69227">
        <ele>170.771362</ele>
        <time>2013-03-07T15:17:04Z</time>
      </trkpt>
      <trkpt lat="44.47224" lon="4.69226">
        <ele>170.290649</ele>
        <time>2013-03-07T15:17:22Z</time>
      </trkpt>
      <trkpt lat="44.4723" lon="4.69225">
        <ele>168.848755</ele>
        <time>2013-03-07T15:17:36Z</time>
      </trkpt>
      <trkpt lat="44.47238" lon="4.69226">
        <ele>166.926025</ele>
        <time>2013-03-07T15:17:52Z</time>
      </trkpt>
      <trkpt lat="44.47244" lon="4.69227">
        <ele>166.445313</ele>
        <time>2013-03-07T15:18:10Z</time>
      </trkpt>
      <trkpt lat="44.47247" lon="4.69226">
        <ele>165.964722</ele>
        <time>2013-03-07T15:18:28Z</time>
      </trkpt>
      <trkpt lat="44.47248" lon="4.69227">
        <ele>166.445313</ele>
        <time>2013-03-07T15:19:07Z</time>
      </trkpt>
      <trkpt lat="44.47248" lon="4.69227">
        <ele>165.964722</ele>
        <time>2013-03-07T15:19:30Z</time>
      </trkpt>
      <trkpt lat="44.4725" lon="4.69227">
        <ele>166.445313</ele>
        <time>2013-03-07T15:19:48Z</time>
      </trkpt>
      <trkpt lat="44.47251" lon="4.69227">
        <ele>165.484131</ele>
        <time>2013-03-07T15:20:07Z</time>
      </trkpt>
      <trkpt lat="44.47258" lon="4.69225">
        <ele>163.080811</ele>
        <time>2013-03-07T15:20:18Z</time>
      </trkpt>
      <trkpt lat="44.47259" lon="4.69225">
        <ele>163.561523</ele>
        <time>2013-03-07T15:20:22Z</time>
      </trkpt>
      <trkpt lat="44.47264" lon="4.69232">
        <ele>165.003418</ele>
        <time>2013-03-07T15:20:37Z</time>
      </trkpt>
      <trkpt lat="44.4727" lon="4.69231">
        <ele>165.003418</ele>
        <time>2013-03-07T15:21:00Z</time>
      </trkpt>
      <trkpt lat="44.47273" lon="4.6923">
        <ele>162.119507</ele>
        <time>2013-03-07T15:21:16Z</time>
      </trkpt>
      <trkpt lat="44.47277" lon="4.69226">
        <ele>161.158203</ele>
        <time>2013-03-07T15:21:30Z</time>
      </trkpt>
      <trkpt lat="44.47279" lon="4.69224">
        <ele>158.754761</ele>
        <time>2013-03-07T15:21:43Z</time>
      </trkpt>
      <trkpt lat="44.47285" lon="4.69227">
        <ele>158.27417</ele>
        <time>2013-03-07T15:21:55Z</time>
      </trkpt>
      <trkpt lat="44.4729" lon="4.69227">
        <ele>159.716187</ele>
        <time>2013-03-07T15:22:08Z</time>
      </trkpt>
      <trkpt lat="44.47292" lon="4.69228">
        <ele>160.196899</ele>
        <time>2013-03-07T15:22:19Z</time>
      </trkpt>
      <trkpt lat="44.47296" lon="4.69228">
        <ele>159.716187</ele>
        <time>2013-03-07T15:22:33Z</time>
      </trkpt>
      <trkpt lat="44.47297" lon="4.69228">
        <ele>159.235474</ele>
        <time>2013-03-07T15:22:59Z</time>
      </trkpt>
      <trkpt lat="44.47301" lon="4.6923">
        <ele>159.716187</ele>
        <time>2013-03-07T15:23:31Z</time>
      </trkpt>
      <trkpt lat="44.47301" lon="4.69234">
        <ele>161.158203</ele>
        <time>2013-03-07T15:23:58Z</time>
      </trkpt>
      <trkpt lat="44.47302" lon="4.69238">
        <ele>163.561523</ele>
        <time>2013-03-07T15:24:40Z</time>
      </trkpt>
      <trkpt lat="44.47303" lon="4.69242">
        <ele>165.003418</ele>
        <time>2013-03-07T15:24:58Z</time>
      </trkpt>
      <trkpt lat="44.47302" lon="4.69244">
        <ele>166.926025</ele>
        <time>2013-03-07T15:25:23Z</time>
      </trkpt>
      <trkpt lat="44.47304" lon="4.69248">
        <ele>168.848755</ele>
        <time>2013-03-07T15:25:38Z</time>
      </trkpt>
      <trkpt lat="44.47307" lon="4.69251">
        <ele>170.290649</ele>
        <time>2013-03-07T15:25:54Z</time>
      </trkpt>
      <trkpt lat="44.4731" lon="4.69256">
        <ele>172.213257</ele>
        <time>2013-03-07T15:26:13Z</time>
      </trkpt>
      <trkpt lat="44.4731" lon="4.69256">
        <ele>172.69397</ele>
        <time>2013-03-07T15:26:44Z</time>
      </trkpt>
      <trkpt lat="44.47308" lon="4.69256">
        <ele>173.655273</ele>
        <time>2013-03-07T15:27:06Z</time>
      </trkpt>
      <trkpt lat="44.47305" lon="4.69255">
        <ele>175.09729</ele>
        <time>2013-03-07T15:27:23Z</time>
      </trkpt>
      <trkpt lat="44.47303" lon="4.69256">
        <ele>177.02002</ele>
        <time>2013-03-07T15:27:36Z</time>
      </trkpt>
      <trkpt lat="44.47302" lon="4.69256">
        <ele>178.942627</ele>
        <time>2013-03-07T15:27:55Z</time>
      </trkpt>
      <trkpt lat="44.47301" lon="4.69255">
        <ele>181.826416</ele>
        <time>2013-03-07T15:28:11Z</time>
      </trkpt>
      <trkpt lat="44.47298" lon="4.69256">
        <ele>181.345825</ele>
        <time>2013-03-07T15:28:34Z</time>
      </trkpt>
      <trkpt lat="44.473" lon="4.69262">
        <ele>179.423218</ele>
        <time>2013-03-07T15:28:49Z</time>
      </trkpt>
      <trkpt lat="44.47303" lon="4.69261">
        <ele>177.50061</ele>
        <time>2013-03-07T15:29:06Z</time>
      </trkpt>
      <trkpt lat="44.47303" lon="4.6926">
        <ele>176.539307</ele>
        <time>2013-03-07T15:29:35Z</time>
      </trkpt>
      <trkpt lat="44.47305" lon="4.69259">
        <ele>175.577881</ele>
        <time>2013-03-07T15:29:49Z</time>
      </trkpt>
      <trkpt lat="44.47308" lon="4.69258">
        <ele>174.135864</ele>
        <time>2013-03-07T15:30:02Z</time>
      </trkpt>
      <trkpt lat="44.47308" lon="4.69256">
        <ele>174.135864</ele>
        <time>2013-03-07T15:30:24Z</time>
      </trkpt>
      <trkpt lat="44.47308" lon="4.69256">
        <ele>173.655273</ele>
        <time>2013-03-07T15:30:43Z</time>
      </trkpt>
      <trkpt lat="44.47308" lon="4.69255">
        <ele>173.174683</ele>
        <time>2013-03-07T15:31:08Z</time>
      </trkpt>
      <trkpt lat="44.47308" lon="4.69256">
        <ele>174.135864</ele>
        <time>2013-03-07T15:31:46Z</time>
      </trkpt>
      <trkpt lat="44.47308" lon="4.69255">
        <ele>173.655273</ele>
        <time>2013-03-07T15:32:33Z</time>
      </trkpt>
      <trkpt lat="44.47308" lon="4.69257">
        <ele>174.135864</ele>
        <time>2013-03-07T15:33:45Z</time>
      </trkpt>
      <trkpt lat="44.47309" lon="4.69257">
        <ele>172.69397</ele>
        <time>2013-03-07T15:34:07Z</time>
      </trkpt>
      <trkpt lat="44.4731" lon="4.69257">
        <ele>172.213257</ele>
        <time>2013-03-07T15:34:23Z</time>
      </trkpt>
      <trkpt lat="44.47312" lon="4.69258">
        <ele>171.732666</ele>
        <time>2013-03-07T15:34:42Z</time>
      </trkpt>
      <trkpt lat="44.47314" lon="4.6926">
        <ele>171.252075</ele>
        <time>2013-03-07T15:34:57Z</time>
      </trkpt>
      <trkpt lat="44.47317" lon="4.69261">
        <ele>169.810059</ele>
        <time>2013-03-07T15:35:13Z</time>
      </trkpt>
      <trkpt lat="44.47317" lon="4.69262">
        <ele>168.848755</ele>
        <time>2013-03-07T15:35:41Z</time>
      </trkpt>
      <trkpt lat="44.4732" lon="4.69263">
        <ele>167.406738</ele>
        <time>2013-03-07T15:35:58Z</time>
      </trkpt>
      <trkpt lat="44.47322" lon="4.69267">
        <ele>165.484131</ele>
        <time>2013-03-07T15:36:14Z</time>
      </trkpt>
      <trkpt lat="44.47327" lon="4.69268">
        <ele>163.561523</ele>
        <time>2013-03-07T15:36:28Z</time>
      </trkpt>
      <trkpt lat="44.47329" lon="4.69272">
        <ele>162.119507</ele>
        <time>2013-03-07T15:36:47Z</time>
      </trkpt>
      <trkpt lat="44.47331" lon="4.6927">
        <ele>162.600098</ele>
        <time>2013-03-07T15:37:08Z</time>
      </trkpt>
      <trkpt lat="44.47332" lon="4.69268">
        <ele>161.638916</ele>
        <time>2013-03-07T15:37:27Z</time>
      </trkpt>
      <trkpt lat="44.47334" lon="4.69268">
        <ele>160.196899</ele>
        <time>2013-03-07T15:37:37Z</time>
      </trkpt>
      <trkpt lat="44.47337" lon="4.6927">
        <ele>159.235474</ele>
        <time>2013-03-07T15:37:55Z</time>
      </trkpt>
      <trkpt lat="44.47336" lon="4.69275">
        <ele>157.793579</ele>
        <time>2013-03-07T15:38:04Z</time>
      </trkpt>
      <trkpt lat="44.47344" lon="4.69275">
        <ele>155.390259</ele>
        <time>2013-03-07T15:38:20Z</time>
      </trkpt>
      <trkpt lat="44.47348" lon="4.69275">
        <ele>153.467651</ele>
        <time>2013-03-07T15:38:40Z</time>
      </trkpt>
      <trkpt lat="44.47349" lon="4.69273">
        <ele>152.506348</ele>
        <time>2013-03-07T15:38:55Z</time>
      </trkpt>
      <trkpt lat="44.47351" lon="4.69276">
        <ele>151.544922</ele>
        <time>2013-03-07T15:39:17Z</time>
      </trkpt>
      <trkpt lat="44.47352" lon="4.6928">
        <ele>150.103027</ele>
        <time>2013-03-07T15:39:30Z</time>
      </trkpt>
      <trkpt lat="44.47354" lon="4.69283">
        <ele>149.141602</ele>
        <time>2013-03-07T15:39:46Z</time>
      </trkpt>
      <trkpt lat="44.47354" lon="4.69287">
        <ele>148.18042</ele>
        <time>2013-03-07T15:40:12Z</time>
      </trkpt>
      <trkpt lat="44.47353" lon="4.69289">
        <ele>148.18042</ele>
        <time>2013-03-07T15:40:34Z</time>
      </trkpt>
      <trkpt lat="44.47355" lon="4.6929">
        <ele>147.218994</ele>
        <time>2013-03-07T15:41:07Z</time>
      </trkpt>
      <trkpt lat="44.47355" lon="4.69292">
        <ele>146.738403</ele>
        <time>2013-03-07T15:41:28Z</time>
      </trkpt>
      <trkpt lat="44.47357" lon="4.69293">
        <ele>145.7771</ele>
        <time>2013-03-07T15:41:53Z</time>
      </trkpt>
      <trkpt lat="44.47358" lon="4.69296">
        <ele>144.335205</ele>
        <time>2013-03-07T15:42:08Z</time>
      </trkpt>
      <trkpt lat="44.47358" lon="4.69296">
        <ele>143.85437</ele>
        <time>2013-03-07T15:42:27Z</time>
      </trkpt>
      <trkpt lat="44.4736" lon="4.69298">
        <ele>142.893066</ele>
        <time>2013-03-07T15:42:37Z</time>
      </trkpt>
      <trkpt lat="44.47359" lon="4.69308">
        <ele>140.970459</ele>
        <time>2013-03-07T15:42:46Z</time>
      </trkpt>
      <trkpt lat="44.47368" lon="4.69313">
        <ele>137.605835</ele>
        <time>2013-03-07T15:43:01Z</time>
      </trkpt>
      <trkpt lat="44.47374" lon="4.69316">
        <ele>134.721924</ele>
        <time>2013-03-07T15:43:12Z</time>
      </trkpt>
      <trkpt lat="44.4738" lon="4.69317">
        <ele>131.837891</ele>
        <time>2013-03-07T15:43:28Z</time>
      </trkpt>
      <trkpt lat="44.47387" lon="4.69319">
        <ele>129.434692</ele>
        <time>2013-03-07T15:43:39Z</time>
      </trkpt>
      <trkpt lat="44.4739" lon="4.69323">
        <ele>127.511963</ele>
        <time>2013-03-07T15:43:55Z</time>
      </trkpt>
      <trkpt lat="44.47394" lon="4.69325">
        <ele>126.069946</ele>
        <time>2013-03-07T15:44:07Z</time>
      </trkpt>
      <trkpt lat="44.47398" lon="4.69328">
        <ele>124.628052</ele>
        <time>2013-03-07T15:44:23Z</time>
      </trkpt>
      <trkpt lat="44.47403" lon="4.69331">
        <ele>122.224731</ele>
        <time>2013-03-07T15:44:35Z</time>
      </trkpt>
      <trkpt lat="44.47407" lon="4.69336">
        <ele>120.302124</ele>
        <time>2013-03-07T15:44:49Z</time>
      </trkpt>
      <trkpt lat="44.47412" lon="4.69335">
        <ele>117.898804</ele>
        <time>2013-03-07T15:45:04Z</time>
      </trkpt>
      <trkpt lat="44.47419" lon="4.69342">
        <ele>115.495605</ele>
        <time>2013-03-07T15:45:17Z</time>
      </trkpt>
      <trkpt lat="44.47423" lon="4.69344">
        <ele>113.572998</ele>
        <time>2013-03-07T15:45:29Z</time>
      </trkpt>
      <trkpt lat="44.47424" lon="4.69344">
        <ele>113.092285</ele>
        <time>2013-03-07T15:45:33Z</time>
      </trkpt>
      <trkpt lat="44.4743" lon="4.69345">
        <ele>111.650269</ele>
        <time>2013-03-07T15:45:46Z</time>
      </trkpt>
      <trkpt lat="44.47437" lon="4.69347">
        <ele>109.727661</ele>
        <time>2013-03-07T15:45:59Z</time>
      </trkpt>
      <trkpt lat="44.4744" lon="4.69347">
        <ele>108.766235</ele>
        <time>2013-03-07T15:46:14Z</time>
      </trkpt>
      <trkpt lat="44.47446" lon="4.6935">
        <ele>107.324341</ele>
        <time>2013-03-07T15:46:27Z</time>
      </trkpt>
      <trkpt lat="44.47451" lon="4.69351">
        <ele>105.882446</ele>
        <time>2013-03-07T15:46:40Z</time>
      </trkpt>
      <trkpt lat="44.47455" lon="4.69354">
        <ele>105.401733</ele>
        <time>2013-03-07T15:47:25Z</time>
      </trkpt>
      <trkpt lat="44.47455" lon="4.69357">
        <ele>104.921021</ele>
        <time>2013-03-07T15:47:45Z</time>
      </trkpt>
      <trkpt lat="44.47458" lon="4.6936">
        <ele>103.959717</ele>
        <time>2013-03-07T15:48:01Z</time>
      </trkpt>
      <trkpt lat="44.47459" lon="4.69362">
        <ele>102.998291</ele>
        <time>2013-03-07T15:48:20Z</time>
      </trkpt>
      <trkpt lat="44.47458" lon="4.69366">
        <ele>102.037109</ele>
        <time>2013-03-07T15:48:35Z</time>
      </trkpt>
      <trkpt lat="44.47459" lon="4.69369">
        <ele>101.075684</ele>
        <time>2013-03-07T15:48:49Z</time>
      </trkpt>
      <trkpt lat="44.47461" lon="4.69371">
        <ele>99.633789</ele>
        <time>2013-03-07T15:49:17Z</time>
      </trkpt>
      <trkpt lat="44.47465" lon="4.69373">
        <ele>98.672485</ele>
        <time>2013-03-07T15:49:32Z</time>
      </trkpt>
      <trkpt lat="44.47466" lon="4.69372">
        <ele>97.711182</ele>
        <time>2013-03-07T15:49:56Z</time>
      </trkpt>
      <trkpt lat="44.47468" lon="4.69372">
        <ele>96.749878</ele>
        <time>2013-03-07T15:50:18Z</time>
      </trkpt>
      <trkpt lat="44.47471" lon="4.69376">
        <ele>95.307739</ele>
        <time>2013-03-07T15:50:41Z</time>
      </trkpt>
      <trkpt lat="44.47473" lon="4.69376">
        <ele>94.827148</ele>
        <time>2013-03-07T15:50:46Z</time>
      </trkpt>
      <trkpt lat="44.47478" lon="4.69371">
        <ele>94.827148</ele>
        <time>2013-03-07T15:51:05Z</time>
      </trkpt>
      <trkpt lat="44.47479" lon="4.69371">
        <ele>94.346558</ele>
        <time>2013-03-07T15:51:36Z</time>
      </trkpt>
      <trkpt lat="44.47482" lon="4.69368">
        <ele>92.904541</ele>
        <time>2013-03-07T15:52:06Z</time>
      </trkpt>
      <trkpt lat="44.47486" lon="4.69375">
        <ele>91.943237</ele>
        <time>2013-03-07T15:52:17Z</time>
      </trkpt>
      <trkpt lat="44.47487" lon="4.69375">
        <ele>90.981934</ele>
        <time>2013-03-07T15:52:18Z</time>
      </trkpt>
      <trkpt lat="44.47493" lon="4.69377">
        <ele>88.578735</ele>
        <time>2013-03-07T15:52:24Z</time>
      </trkpt>
      <trkpt lat="44.47493" lon="4.69382">
        <ele>85.69458</ele>
        <time>2013-03-07T15:52:37Z</time>
      </trkpt>
      <trkpt lat="44.47496" lon="4.69388">
        <ele>83.291382</ele>
        <time>2013-03-07T15:52:42Z</time>
      </trkpt>
      <trkpt lat="44.47504" lon="4.69393">
        <ele>80.407471</ele>
        <time>2013-03-07T15:52:57Z</time>
      </trkpt>
      <trkpt lat="44.47509" lon="4.69393">
        <ele>79.446045</ele>
        <time>2013-03-07T15:53:02Z</time>
      </trkpt>
      <trkpt lat="44.47512" lon="4.69403">
        <ele>78.965454</ele>
        <time>2013-03-07T15:53:20Z</time>
      </trkpt>
      <trkpt lat="44.4752" lon="4.69411">
        <ele>77.042847</ele>
        <time>2013-03-07T15:53:41Z</time>
      </trkpt>
      <trkpt lat="44.47524" lon="4.69419">
        <ele>74.639526</ele>
        <time>2013-03-07T15:53:56Z</time>
      </trkpt>
      <trkpt lat="44.47525" lon="4.69423">
        <ele>74.158813</ele>
        <time>2013-03-07T15:54:16Z</time>
      </trkpt>
      <trkpt lat="44.47525" lon="4.69426">
        <ele>75.120239</ele>
        <time>2013-03-07T15:54:29Z</time>
      </trkpt>
      <trkpt lat="44.47528" lon="4.69427">
        <ele>74.158813</ele>
        <time>2013-03-07T15:54:46Z</time>
      </trkpt>
      <trkpt lat="44.47533" lon="4.69427">
        <ele>73.197632</ele>
        <time>2013-03-07T15:55:13Z</time>
      </trkpt>
      <trkpt lat="44.47542" lon="4.69436">
        <ele>72.716919</ele>
        <time>2013-03-07T15:55:28Z</time>
      </trkpt>
      <trkpt lat="44.47545" lon="4.6944">
        <ele>72.236206</ele>
        <time>2013-03-07T15:55:34Z</time>
      </trkpt>
      <trkpt lat="44.47555" lon="4.6945">
        <ele>72.716919</ele>
        <time>2013-03-07T15:55:51Z</time>
      </trkpt>
      <trkpt lat="44.4756" lon="4.69455">
        <ele>71.755493</ele>
        <time>2013-03-07T15:56:06Z</time>
      </trkpt>
      <trkpt lat="44.47562" lon="4.69466">
        <ele>69.832886</ele>
        <time>2013-03-07T15:56:25Z</time>
      </trkpt>
      <trkpt lat="44.47563" lon="4.69475">
        <ele>66.468262</ele>
        <time>2013-03-07T15:56:44Z</time>
      </trkpt>
      <trkpt lat="44.47563" lon="4.69477">
        <ele>65.987671</ele>
        <time>2013-03-07T15:56:47Z</time>
      </trkpt>
      <trkpt lat="44.4756" lon="4.69482">
        <ele>64.065063</ele>
        <time>2013-03-07T15:57:03Z</time>
      </trkpt>
      <trkpt lat="44.4756" lon="4.69486">
        <ele>63.584351</ele>
        <time>2013-03-07T15:57:31Z</time>
      </trkpt>
      <trkpt lat="44.47561" lon="4.69487">
        <ele>64.545654</ele>
        <time>2013-03-07T15:58:01Z</time>
      </trkpt>
      <trkpt lat="44.47564" lon="4.69488">
        <ele>64.065063</ele>
        <time>2013-03-07T15:58:17Z</time>
      </trkpt>
      <trkpt lat="44.47568" lon="4.695">
        <ele>62.142334</ele>
        <time>2013-03-07T15:58:31Z</time>
      </trkpt>
      <trkpt lat="44.47569" lon="4.69503">
        <ele>61.18103</ele>
        <time>2013-03-07T15:58:34Z</time>
      </trkpt>
      <trkpt lat="44.47577" lon="4.69513">
        <ele>60.700317</ele>
        <time>2013-03-07T15:58:49Z</time>
      </trkpt>
      <trkpt lat="44.47577" lon="4.69513">
        <ele>60.700317</ele>
        <time>2013-03-07T15:58:51Z</time>
      </trkpt>
      <trkpt lat="44.47582" lon="4.69513">
        <ele>60.700317</ele>
        <time>2013-03-07T15:58:56Z</time>
      </trkpt>
      <trkpt lat="44.47589" lon="4.69514">
        <ele>60.700317</ele>
        <time>2013-03-07T15:59:08Z</time>
      </trkpt>
      <trkpt lat="44.47603" lon="4.69513">
        <ele>60.700317</ele>
        <time>2013-03-07T15:59:24Z</time>
      </trkpt>
      <trkpt lat="44.47608" lon="4.69512">
        <ele>60.700317</ele>
        <time>2013-03-07T15:59:31Z</time>
      </trkpt>
      <trkpt lat="44.47614" lon="4.69513">
        <ele>61.18103</ele>
        <time>2013-03-07T15:59:36Z</time>
      </trkpt>
      <trkpt lat="44.47616" lon="4.69513">
        <ele>61.18103</ele>
        <time>2013-03-07T15:59:38Z</time>
      </trkpt>
      <trkpt lat="44.47619" lon="4.69514">
        <ele>60.700317</ele>
        <time>2013-03-07T15:59:41Z</time>
      </trkpt>
      <trkpt lat="44.47622" lon="4.69514">
        <ele>60.700317</ele>
        <time>2013-03-07T15:59:45Z</time>
      </trkpt>
      <trkpt lat="44.47627" lon="4.69515">
        <ele>61.18103</ele>
        <time>2013-03-07T15:59:56Z</time>
      </trkpt>
      <trkpt lat="44.47628" lon="4.69516">
        <ele>61.18103</ele>
        <time>2013-03-07T15:59:57Z</time>
      </trkpt>
      <trkpt lat="44.4763" lon="4.69518">
        <ele>61.18103</ele>
        <time>2013-03-07T16:00:02Z</time>
      </trkpt>
      <trkpt lat="44.47642" lon="4.69518">
        <ele>61.18103</ele>
        <time>2013-03-07T16:00:15Z</time>
      </trkpt>
      <trkpt lat="44.47645" lon="4.69518">
        <ele>61.18103</ele>
        <time>2013-03-07T16:00:18Z</time>
      </trkpt>
      <trkpt lat="44.47649" lon="4.69518">
        <ele>60.700317</ele>
        <time>2013-03-07T16:00:23Z</time>
      </trkpt>
      <trkpt lat="44.47663" lon="4.69518">
        <ele>61.18103</ele>
        <time>2013-03-07T16:00:39Z</time>
      </trkpt>
      <trkpt lat="44.4768" lon="4.69513">
        <ele>61.18103</ele>
        <time>2013-03-07T16:00:57Z</time>
      </trkpt>
      <trkpt lat="44.47704" lon="4.69504">
        <ele>62.142334</ele>
        <time>2013-03-07T16:01:20Z</time>
      </trkpt>
      <trkpt lat="44.47705" lon="4.69503">
        <ele>62.142334</ele>
        <time>2013-03-07T16:01:22Z</time>
      </trkpt>
      <trkpt lat="44.47716" lon="4.69488">
        <ele>62.142334</ele>
        <time>2013-03-07T16:01:37Z</time>
      </trkpt>
      <trkpt lat="44.47729" lon="4.69473">
        <ele>61.661743</ele>
        <time>2013-03-07T16:01:55Z</time>
      </trkpt>
      <trkpt lat="44.47755" lon="4.69457">
        <ele>61.661743</ele>
        <time>2013-03-07T16:02:22Z</time>
      </trkpt>
      <trkpt lat="44.47764" lon="4.69452">
        <ele>61.661743</ele>
        <time>2013-03-07T16:02:39Z</time>
      </trkpt>
      <trkpt lat="44.47767" lon="4.69447">
        <ele>61.661743</ele>
        <time>2013-03-07T16:02:48Z</time>
      </trkpt>
      <trkpt lat="44.47782" lon="4.6944">
        <ele>61.661743</ele>
        <time>2013-03-07T16:03:03Z</time>
      </trkpt>
      <trkpt lat="44.47784" lon="4.69439">
        <ele>61.661743</ele>
        <time>2013-03-07T16:03:05Z</time>
      </trkpt>
      <trkpt lat="44.47793" lon="4.69433">
        <ele>62.142334</ele>
        <time>2013-03-07T16:03:15Z</time>
      </trkpt>
      <trkpt lat="44.47812" lon="4.69423">
        <ele>62.142334</ele>
        <time>2013-03-07T16:03:34Z</time>
      </trkpt>
      <trkpt lat="44.47815" lon="4.69422">
        <ele>61.661743</ele>
        <time>2013-03-07T16:03:37Z</time>
      </trkpt>
      <trkpt lat="44.47835" lon="4.69418">
        <ele>61.661743</ele>
        <time>2013-03-07T16:03:55Z</time>
      </trkpt>
      <trkpt lat="44.47853" lon="4.69416">
        <ele>61.661743</ele>
        <time>2013-03-07T16:04:14Z</time>
      </trkpt>
      <trkpt lat="44.47858" lon="4.69416">
        <ele>61.661743</ele>
        <time>2013-03-07T16:04:19Z</time>
      </trkpt>
      <trkpt lat="44.47878" lon="4.69408">
        <ele>61.18103</ele>
        <time>2013-03-07T16:04:38Z</time>
      </trkpt>
      <trkpt lat="44.47897" lon="4.69402">
        <ele>60.700317</ele>
        <time>2013-03-07T16:04:58Z</time>
      </trkpt>
      <trkpt lat="44.47913" lon="4.69399">
        <ele>60.700317</ele>
        <time>2013-03-07T16:05:14Z</time>
      </trkpt>
      <trkpt lat="44.47926" lon="4.69392">
        <ele>60.700317</ele>
        <time>2013-03-07T16:05:30Z</time>
      </trkpt>
      <trkpt lat="44.47949" lon="4.69381">
        <ele>60.700317</ele>
        <time>2013-03-07T16:05:54Z</time>
      </trkpt>
      <trkpt lat="44.47976" lon="4.69372">
        <ele>60.700317</ele>
        <time>2013-03-07T16:06:19Z</time>
      </trkpt>
      <trkpt lat="44.4798" lon="4.69369">
        <ele>60.700317</ele>
        <time>2013-03-07T16:06:24Z</time>
      </trkpt>
      <trkpt lat="44.47982" lon="4.69366">
        <ele>60.700317</ele>
        <time>2013-03-07T16:06:26Z</time>
      </trkpt>
      <trkpt lat="44.48007" lon="4.69353">
        <ele>61.18103</ele>
        <time>2013-03-07T16:06:50Z</time>
      </trkpt>
      <trkpt lat="44.48011" lon="4.69348">
        <ele>61.18103</ele>
        <time>2013-03-07T16:06:54Z</time>
      </trkpt>
      <trkpt lat="44.48013" lon="4.69344">
        <ele>61.18103</ele>
        <time>2013-03-07T16:06:57Z</time>
      </trkpt>
      <trkpt lat="44.48027" lon="4.69329">
        <ele>61.661743</ele>
        <time>2013-03-07T16:07:13Z</time>
      </trkpt>
      <trkpt lat="44.48028" lon="4.69324">
        <ele>61.661743</ele>
        <time>2013-03-07T16:07:17Z</time>
      </trkpt>
      <trkpt lat="44.48044" lon="4.69317">
        <ele>62.622925</ele>
        <time>2013-03-07T16:07:32Z</time>
      </trkpt>
      <trkpt lat="44.48064" lon="4.69303">
        <ele>62.622925</ele>
        <time>2013-03-07T16:07:53Z</time>
      </trkpt>
      <trkpt lat="44.48094" lon="4.69289">
        <ele>63.584351</ele>
        <time>2013-03-07T16:08:21Z</time>
      </trkpt>
      <trkpt lat="44.48099" lon="4.69289">
        <ele>63.103638</ele>
        <time>2013-03-07T16:08:42Z</time>
      </trkpt>
      <trkpt lat="44.48101" lon="4.69286">
        <ele>63.584351</ele>
        <time>2013-03-07T16:08:59Z</time>
      </trkpt>
      <trkpt lat="44.48102" lon="4.69273">
        <ele>64.065063</ele>
        <time>2013-03-07T16:09:12Z</time>
      </trkpt>
      <trkpt lat="44.481" lon="4.69266">
        <ele>64.065063</ele>
        <time>2013-03-07T16:09:19Z</time>
      </trkpt>
      <trkpt lat="44.48096" lon="4.69246">
        <ele>65.026367</ele>
        <time>2013-03-07T16:09:35Z</time>
      </trkpt>
      <trkpt lat="44.4809" lon="4.69216">
        <ele>65.987671</ele>
        <time>2013-03-07T16:09:58Z</time>
      </trkpt>
      <trkpt lat="44.4809" lon="4.69212">
        <ele>65.987671</ele>
        <time>2013-03-07T16:10:01Z</time>
      </trkpt>
      <trkpt lat="44.48089" lon="4.69208">
        <ele>66.468262</ele>
        <time>2013-03-07T16:10:05Z</time>
      </trkpt>
      <trkpt lat="44.48079" lon="4.69182">
        <ele>66.948975</ele>
        <time>2013-03-07T16:10:24Z</time>
      </trkpt>
      <trkpt lat="44.48072" lon="4.69153">
        <ele>68.390869</ele>
        <time>2013-03-07T16:10:46Z</time>
      </trkpt>
      <trkpt lat="44.48067" lon="4.69117">
        <ele>69.352295</ele>
        <time>2013-03-07T16:11:13Z</time>
      </trkpt>
      <trkpt lat="44.48058" lon="4.69089">
        <ele>70.313477</ele>
        <time>2013-03-07T16:11:37Z</time>
      </trkpt>
      <trkpt lat="44.48046" lon="4.69055">
        <ele>71.755493</ele>
        <time>2013-03-07T16:12:02Z</time>
      </trkpt>
      <trkpt lat="44.48045" lon="4.69049">
        <ele>71.755493</ele>
        <time>2013-03-07T16:12:14Z</time>
      </trkpt>
      <trkpt lat="44.48048" lon="4.69046">
        <ele>72.236206</ele>
        <time>2013-03-07T16:12:17Z</time>
      </trkpt>
      <trkpt lat="44.4806" lon="4.69041">
        <ele>72.716919</ele>
        <time>2013-03-07T16:12:31Z</time>
      </trkpt>
      <trkpt lat="44.48065" lon="4.69025">
        <ele>72.716919</ele>
        <time>2013-03-07T16:12:48Z</time>
      </trkpt>
      <trkpt lat="44.48074" lon="4.69014">
        <ele>72.716919</ele>
        <time>2013-03-07T16:12:59Z</time>
      </trkpt>
      <trkpt lat="44.4808" lon="4.68994">
        <ele>72.716919</ele>
        <time>2013-03-07T16:13:11Z</time>
      </trkpt>
      <trkpt lat="44.48085" lon="4.68987">
        <ele>72.716919</ele>
        <time>2013-03-07T16:13:18Z</time>
      </trkpt>
      <trkpt lat="44.48081" lon="4.68978">
        <ele>72.716919</ele>
        <time>2013-03-07T16:13:24Z</time>
      </trkpt>
      <trkpt lat="44.48073" lon="4.68989">
        <ele>72.716919</ele>
        <time>2013-03-07T16:13:35Z</time>
      </trkpt>
      <trkpt lat="44.48069" lon="4.69006">
        <ele>72.716919</ele>
        <time>2013-03-07T16:13:49Z</time>
      </trkpt>
      <trkpt lat="44.48056" lon="4.69011">
        <ele>73.197632</ele>
        <time>2013-03-07T16:13:54Z</time>
      </trkpt>
      <trkpt lat="44.4805" lon="4.6901">
        <ele>73.197632</ele>
        <time>2013-03-07T16:13:59Z</time>
      </trkpt>
      <trkpt lat="44.48052" lon="4.68999">
        <ele>74.639526</ele>
        <time>2013-03-07T16:14:06Z</time>
      </trkpt>
      <trkpt lat="44.48055" lon="4.68984">
        <ele>77.042847</ele>
        <time>2013-03-07T16:14:23Z</time>
      </trkpt>
      <trkpt lat="44.48055" lon="4.6897">
        <ele>79.446045</ele>
        <time>2013-03-07T16:14:34Z</time>
      </trkpt>
      <trkpt lat="44.48049" lon="4.68971">
        <ele>80.888184</ele>
        <time>2013-03-07T16:14:46Z</time>
      </trkpt>
      <trkpt lat="44.48043" lon="4.68969">
        <ele>81.849365</ele>
        <time>2013-03-07T16:15:00Z</time>
      </trkpt>
      <trkpt lat="44.48038" lon="4.68965">
        <ele>83.771973</ele>
        <time>2013-03-07T16:15:12Z</time>
      </trkpt>
      <trkpt lat="44.48032" lon="4.68961">
        <ele>86.175293</ele>
        <time>2013-03-07T16:15:27Z</time>
      </trkpt>
      <trkpt lat="44.48021" lon="4.68951">
        <ele>88.578735</ele>
        <time>2013-03-07T16:15:43Z</time>
      </trkpt>
      <trkpt lat="44.4802" lon="4.68938">
        <ele>90.501343</ele>
        <time>2013-03-07T16:15:56Z</time>
      </trkpt>
      <trkpt lat="44.48019" lon="4.68926">
        <ele>92.42395</ele>
        <time>2013-03-07T16:16:10Z</time>
      </trkpt>
      <trkpt lat="44.48028" lon="4.68922">
        <ele>92.904541</ele>
        <time>2013-03-07T16:16:24Z</time>
      </trkpt>
      <trkpt lat="44.48037" lon="4.68905">
        <ele>92.904541</ele>
        <time>2013-03-07T16:16:41Z</time>
      </trkpt>
      <trkpt lat="44.48035" lon="4.68889">
        <ele>95.788452</ele>
        <time>2013-03-07T16:16:58Z</time>
      </trkpt>
      <trkpt lat="44.48032" lon="4.68882">
        <ele>96.749878</ele>
        <time>2013-03-07T16:17:15Z</time>
      </trkpt>
      <trkpt lat="44.48035" lon="4.68872">
        <ele>99.153076</ele>
        <time>2013-03-07T16:17:47Z</time>
      </trkpt>
      <trkpt lat="44.48042" lon="4.68865">
        <ele>100.114502</ele>
        <time>2013-03-07T16:18:03Z</time>
      </trkpt>
      <trkpt lat="44.4805" lon="4.68864">
        <ele>99.633789</ele>
        <time>2013-03-07T16:18:12Z</time>
      </trkpt>
      <trkpt lat="44.48059" lon="4.68861">
        <ele>100.114502</ele>
        <time>2013-03-07T16:18:28Z</time>
      </trkpt>
      <trkpt lat="44.48065" lon="4.68854">
        <ele>102.5177</ele>
        <time>2013-03-07T16:18:45Z</time>
      </trkpt>
      <trkpt lat="44.48075" lon="4.68847">
        <ele>105.401733</ele>
        <time>2013-03-07T16:19:03Z</time>
      </trkpt>
      <trkpt lat="44.4809" lon="4.68838">
        <ele>104.921021</ele>
        <time>2013-03-07T16:19:24Z</time>
      </trkpt>
      <trkpt lat="44.48103" lon="4.68832">
        <ele>102.5177</ele>
        <time>2013-03-07T16:19:45Z</time>
      </trkpt>
      <trkpt lat="44.48111" lon="4.68823">
        <ele>104.44043</ele>
        <time>2013-03-07T16:20:02Z</time>
      </trkpt>
      <trkpt lat="44.48116" lon="4.68815">
        <ele>107.805054</ele>
        <time>2013-03-07T16:20:19Z</time>
      </trkpt>
      <trkpt lat="44.48122" lon="4.68807">
        <ele>109.727661</ele>
        <time>2013-03-07T16:20:35Z</time>
      </trkpt>
      <trkpt lat="44.4813" lon="4.68799">
        <ele>112.130981</ele>
        <time>2013-03-07T16:20:54Z</time>
      </trkpt>
      <trkpt lat="44.4814" lon="4.68797">
        <ele>113.572998</ele>
        <time>2013-03-07T16:21:11Z</time>
      </trkpt>
      <trkpt lat="44.48149" lon="4.68789">
        <ele>114.053589</ele>
        <time>2013-03-07T16:21:25Z</time>
      </trkpt>
      <trkpt lat="44.4815" lon="4.68787">
        <ele>114.053589</ele>
        <time>2013-03-07T16:21:43Z</time>
      </trkpt>
      <trkpt lat="44.48155" lon="4.68781">
        <ele>116.456787</ele>
        <time>2013-03-07T16:21:57Z</time>
      </trkpt>
      <trkpt lat="44.48149" lon="4.68776">
        <ele>117.418213</ele>
        <time>2013-03-07T16:22:25Z</time>
      </trkpt>
      <trkpt lat="44.48147" lon="4.68775">
        <ele>117.898804</ele>
        <time>2013-03-07T16:22:27Z</time>
      </trkpt>
      <trkpt lat="44.48133" lon="4.68772">
        <ele>120.782837</ele>
        <time>2013-03-07T16:22:44Z</time>
      </trkpt>
      <trkpt lat="44.48132" lon="4.68772">
        <ele>121.26355</ele>
        <time>2013-03-07T16:22:47Z</time>
      </trkpt>
      <trkpt lat="44.48135" lon="4.68771">
        <ele>121.744141</ele>
        <time>2013-03-07T16:22:53Z</time>
      </trkpt>
      <trkpt lat="44.48155" lon="4.68767">
        <ele>123.186157</ele>
        <time>2013-03-07T16:23:13Z</time>
      </trkpt>
      <trkpt lat="44.48156" lon="4.68766">
        <ele>123.666748</ele>
        <time>2013-03-07T16:23:14Z</time>
      </trkpt>
      <trkpt lat="44.48154" lon="4.68759">
        <ele>125.589355</ele>
        <time>2013-03-07T16:23:26Z</time>
      </trkpt>
      <trkpt lat="44.48153" lon="4.68759">
        <ele>126.069946</ele>
        <time>2013-03-07T16:23:28Z</time>
      </trkpt>
      <trkpt lat="44.48141" lon="4.68753">
        <ele>128.954102</ele>
        <time>2013-03-07T16:23:46Z</time>
      </trkpt>
      <trkpt lat="44.48132" lon="4.68747">
        <ele>131.3573</ele>
        <time>2013-03-07T16:24:03Z</time>
      </trkpt>
      <trkpt lat="44.48124" lon="4.68746">
        <ele>133.279907</ele>
        <time>2013-03-07T16:24:20Z</time>
      </trkpt>
      <trkpt lat="44.48115" lon="4.68743">
        <ele>134.721924</ele>
        <time>2013-03-07T16:24:36Z</time>
      </trkpt>
      <trkpt lat="44.48105" lon="4.68745">
        <ele>135.683105</ele>
        <time>2013-03-07T16:24:51Z</time>
      </trkpt>
      <trkpt lat="44.48096" lon="4.68747">
        <ele>137.605835</ele>
        <time>2013-03-07T16:25:09Z</time>
      </trkpt>
      <trkpt lat="44.48093" lon="4.68745">
        <ele>139.047852</ele>
        <time>2013-03-07T16:25:25Z</time>
      </trkpt>
      <trkpt lat="44.48095" lon="4.68743">
        <ele>141.45105</ele>
        <time>2013-03-07T16:25:44Z</time>
      </trkpt>
      <trkpt lat="44.48097" lon="4.68739">
        <ele>143.373657</ele>
        <time>2013-03-07T16:26:03Z</time>
      </trkpt>
      <trkpt lat="44.48097" lon="4.68737">
        <ele>143.373657</ele>
        <time>2013-03-07T16:26:56Z</time>
      </trkpt>
      <trkpt lat="44.48099" lon="4.68731">
        <ele>145.296387</ele>
        <time>2013-03-07T16:27:11Z</time>
      </trkpt>
      <trkpt lat="44.48101" lon="4.68726">
        <ele>146.738403</ele>
        <time>2013-03-07T16:27:22Z</time>
      </trkpt>
      <trkpt lat="44.48104" lon="4.68721">
        <ele>148.18042</ele>
        <time>2013-03-07T16:27:35Z</time>
      </trkpt>
      <trkpt lat="44.48104" lon="4.68719">
        <ele>147.218994</ele>
        <time>2013-03-07T16:27:52Z</time>
      </trkpt>
      <trkpt lat="44.48103" lon="4.68722">
        <ele>147.699707</ele>
        <time>2013-03-07T16:28:08Z</time>
      </trkpt>
      <trkpt lat="44.48106" lon="4.68723">
        <ele>148.18042</ele>
        <time>2013-03-07T16:28:20Z</time>
      </trkpt>
      <trkpt lat="44.48109" lon="4.68717">
        <ele>148.18042</ele>
        <time>2013-03-07T16:28:31Z</time>
      </trkpt>
      <trkpt lat="44.48105" lon="4.6872">
        <ele>147.699707</ele>
        <time>2013-03-07T16:28:50Z</time>
      </trkpt>
      <trkpt lat="44.48107" lon="4.68721">
        <ele>147.699707</ele>
        <time>2013-03-07T16:29:48Z</time>
      </trkpt>
      <trkpt lat="44.48099" lon="4.68723">
        <ele>146.257813</ele>
        <time>2013-03-07T16:34:42Z</time>
      </trkpt>
      <trkpt lat="44.48105" lon="4.68715">
        <ele>144.815796</ele>
        <time>2013-03-07T16:38:11Z</time>
      </trkpt>
      <trkpt lat="44.48109" lon="4.68715">
        <ele>144.335205</ele>
        <time>2013-03-07T16:39:45Z</time>
      </trkpt>
      <trkpt lat="44.4811" lon="4.68713">
        <ele>144.335205</ele>
        <time>2013-03-07T16:40:25Z</time>
      </trkpt>
      <trkpt lat="44.48107" lon="4.68711">
        <ele>144.335205</ele>
        <time>2013-03-07T16:41:00Z</time>
      </trkpt>
      <trkpt lat="44.48105" lon="4.68709">
        <ele>143.85437</ele>
        <time>2013-03-07T16:41:17Z</time>
      </trkpt>
      <trkpt lat="44.48102" lon="4.68711">
        <ele>142.893066</ele>
        <time>2013-03-07T16:41:31Z</time>
      </trkpt>
      <trkpt lat="44.48102" lon="4.68712">
        <ele>141.931763</ele>
        <time>2013-03-07T16:41:46Z</time>
      </trkpt>
      <trkpt lat="44.4809" lon="4.687">
        <ele>140.970459</ele>
        <time>2013-03-07T16:41:59Z</time>
      </trkpt>
      <trkpt lat="44.48087" lon="4.68698">
        <ele>140.970459</ele>
        <time>2013-03-07T16:42:01Z</time>
      </trkpt>
      <trkpt lat="44.48082" lon="4.6868">
        <ele>142.412476</ele>
        <time>2013-03-07T16:42:18Z</time>
      </trkpt>
      <trkpt lat="44.4808" lon="4.68672">
        <ele>141.45105</ele>
        <time>2013-03-07T16:42:32Z</time>
      </trkpt>
      <trkpt lat="44.48074" lon="4.68662">
        <ele>140.489868</ele>
        <time>2013-03-07T16:42:56Z</time>
      </trkpt>
      <trkpt lat="44.48065" lon="4.68646">
        <ele>139.047852</ele>
        <time>2013-03-07T16:43:10Z</time>
      </trkpt>
      <trkpt lat="44.48065" lon="4.68645">
        <ele>139.047852</ele>
        <time>2013-03-07T16:43:11Z</time>
      </trkpt>
      <trkpt lat="44.48065" lon="4.6861">
        <ele>138.567261</ele>
        <time>2013-03-07T16:43:33Z</time>
      </trkpt>
      <trkpt lat="44.48067" lon="4.68593">
        <ele>140.009155</ele>
        <time>2013-03-07T16:43:46Z</time>
      </trkpt>
      <trkpt lat="44.48061" lon="4.68585">
        <ele>139.528442</ele>
        <time>2013-03-07T16:43:53Z</time>
      </trkpt>
      <trkpt lat="44.48044" lon="4.68572">
        <ele>139.047852</ele>
        <time>2013-03-07T16:44:11Z</time>
      </trkpt>
      <trkpt lat="44.48044" lon="4.68569">
        <ele>139.047852</ele>
        <time>2013-03-07T16:44:13Z</time>
      </trkpt>
      <trkpt lat="44.4805" lon="4.68542">
        <ele>139.528442</ele>
        <time>2013-03-07T16:44:31Z</time>
      </trkpt>
      <trkpt lat="44.48064" lon="4.68527">
        <ele>139.528442</ele>
        <time>2013-03-07T16:44:47Z</time>
      </trkpt>
      <trkpt lat="44.48065" lon="4.68526">
        <ele>139.528442</ele>
        <time>2013-03-07T16:44:48Z</time>
      </trkpt>
      <trkpt lat="44.48068" lon="4.68521">
        <ele>139.528442</ele>
        <time>2013-03-07T16:44:53Z</time>
      </trkpt>
      <trkpt lat="44.48072" lon="4.68513">
        <ele>139.528442</ele>
        <time>2013-03-07T16:44:59Z</time>
      </trkpt>
      <trkpt lat="44.48056" lon="4.68496">
        <ele>140.009155</ele>
        <time>2013-03-07T16:45:18Z</time>
      </trkpt>
      <trkpt lat="44.48049" lon="4.68483">
        <ele>140.009155</ele>
        <time>2013-03-07T16:45:30Z</time>
      </trkpt>
      <trkpt lat="44.48057" lon="4.68459">
        <ele>140.009155</ele>
        <time>2013-03-07T16:45:46Z</time>
      </trkpt>
      <trkpt lat="44.48079" lon="4.68445">
        <ele>140.009155</ele>
        <time>2013-03-07T16:46:08Z</time>
      </trkpt>
      <trkpt lat="44.48086" lon="4.68441">
        <ele>140.009155</ele>
        <time>2013-03-07T16:46:16Z</time>
      </trkpt>
      <trkpt lat="44.48088" lon="4.68439">
        <ele>140.009155</ele>
        <time>2013-03-07T16:46:18Z</time>
      </trkpt>
      <trkpt lat="44.48089" lon="4.68432">
        <ele>140.489868</ele>
        <time>2013-03-07T16:46:24Z</time>
      </trkpt>
      <trkpt lat="44.48076" lon="4.6841">
        <ele>141.931763</ele>
        <time>2013-03-07T16:46:45Z</time>
      </trkpt>
      <trkpt lat="44.48071" lon="4.68399">
        <ele>141.931763</ele>
        <time>2013-03-07T16:46:54Z</time>
      </trkpt>
      <trkpt lat="44.48071" lon="4.68395">
        <ele>141.931763</ele>
        <time>2013-03-07T16:46:56Z</time>
      </trkpt>
      <trkpt lat="44.48068" lon="4.6838">
        <ele>141.931763</ele>
        <time>2013-03-07T16:47:11Z</time>
      </trkpt>
      <trkpt lat="44.48069" lon="4.6838">
        <ele>141.45105</ele>
        <time>2013-03-07T16:47:16Z</time>
      </trkpt>
      <trkpt lat="44.48088" lon="4.68385">
        <ele>138.567261</ele>
        <time>2013-03-07T16:47:35Z</time>
      </trkpt>
      <trkpt lat="44.4809" lon="4.68387">
        <ele>138.086548</ele>
        <time>2013-03-07T16:47:38Z</time>
      </trkpt>
      <trkpt lat="44.48093" lon="4.68392">
        <ele>137.605835</ele>
        <time>2013-03-07T16:47:56Z</time>
      </trkpt>
      <trkpt lat="44.48093" lon="4.68406">
        <ele>136.16394</ele>
        <time>2013-03-07T16:48:12Z</time>
      </trkpt>
      <trkpt lat="44.48105" lon="4.68423">
        <ele>133.760498</ele>
        <time>2013-03-07T16:48:32Z</time>
      </trkpt>
      <trkpt lat="44.48114" lon="4.68427">
        <ele>132.318604</ele>
        <time>2013-03-07T16:48:44Z</time>
      </trkpt>
      <trkpt lat="44.48121" lon="4.68429">
        <ele>130.876709</ele>
        <time>2013-03-07T16:48:53Z</time>
      </trkpt>
      <trkpt lat="44.48132" lon="4.68429">
        <ele>128.954102</ele>
        <time>2013-03-07T16:49:10Z</time>
      </trkpt>
      <trkpt lat="44.48139" lon="4.68433">
        <ele>127.992554</ele>
        <time>2013-03-07T16:49:21Z</time>
      </trkpt>
      <trkpt lat="44.48151" lon="4.68439">
        <ele>126.069946</ele>
        <time>2013-03-07T16:49:38Z</time>
      </trkpt>
      <trkpt lat="44.48162" lon="4.68444">
        <ele>124.628052</ele>
        <time>2013-03-07T16:49:54Z</time>
      </trkpt>
      <trkpt lat="44.48175" lon="4.68448">
        <ele>122.705444</ele>
        <time>2013-03-07T16:50:11Z</time>
      </trkpt>
      <trkpt lat="44.48176" lon="4.6845">
        <ele>122.705444</ele>
        <time>2013-03-07T16:50:13Z</time>
      </trkpt>
      <trkpt lat="44.48182" lon="4.68463">
        <ele>121.26355</ele>
        <time>2013-03-07T16:50:28Z</time>
      </trkpt>
      <trkpt lat="44.48191" lon="4.68465">
        <ele>119.821411</ele>
        <time>2013-03-07T16:50:42Z</time>
      </trkpt>
      <trkpt lat="44.48197" lon="4.68474">
        <ele>117.898804</ele>
        <time>2013-03-07T16:50:56Z</time>
      </trkpt>
      <trkpt lat="44.48201" lon="4.68481">
        <ele>117.418213</ele>
        <time>2013-03-07T16:51:11Z</time>
      </trkpt>
      <trkpt lat="44.48201" lon="4.68482">
        <ele>116.9375</ele>
        <time>2013-03-07T16:51:30Z</time>
      </trkpt>
      <trkpt lat="44.48201" lon="4.68482">
        <ele>116.9375</ele>
        <time>2013-03-07T16:51:32Z</time>
      </trkpt>
      <trkpt lat="44.48209" lon="4.68488">
        <ele>115.014893</ele>
        <time>2013-03-07T16:51:45Z</time>
      </trkpt>
      <trkpt lat="44.48216" lon="4.68506">
        <ele>112.130981</ele>
        <time>2013-03-07T16:52:06Z</time>
      </trkpt>
      <trkpt lat="44.4822" lon="4.68513">
        <ele>111.169556</ele>
        <time>2013-03-07T16:52:15Z</time>
      </trkpt>
      <trkpt lat="44.48229" lon="4.68529">
        <ele>107.805054</ele>
        <time>2013-03-07T16:52:36Z</time>
      </trkpt>
      <trkpt lat="44.48234" lon="4.68534">
        <ele>105.882446</ele>
        <time>2013-03-07T16:52:57Z</time>
      </trkpt>
      <trkpt lat="44.48235" lon="4.68539">
        <ele>104.921021</ele>
        <time>2013-03-07T16:53:13Z</time>
      </trkpt>
      <trkpt lat="44.4824" lon="4.68553">
        <ele>102.998291</ele>
        <time>2013-03-07T16:53:28Z</time>
      </trkpt>
      <trkpt lat="44.48247" lon="4.68566">
        <ele>101.075684</ele>
        <time>2013-03-07T16:53:46Z</time>
      </trkpt>
      <trkpt lat="44.48252" lon="4.68579">
        <ele>99.153076</ele>
        <time>2013-03-07T16:54:01Z</time>
      </trkpt>
      <trkpt lat="44.48259" lon="4.68597">
        <ele>96.749878</ele>
        <time>2013-03-07T16:54:20Z</time>
      </trkpt>
      <trkpt lat="44.48272" lon="4.68609">
        <ele>95.307739</ele>
        <time>2013-03-07T16:54:38Z</time>
      </trkpt>
      <trkpt lat="44.48279" lon="4.68626">
        <ele>93.385132</ele>
        <time>2013-03-07T16:54:55Z</time>
      </trkpt>
      <trkpt lat="44.48288" lon="4.68648">
        <ele>90.02063</ele>
        <time>2013-03-07T16:55:17Z</time>
      </trkpt>
      <trkpt lat="44.48292" lon="4.68659">
        <ele>88.098022</ele>
        <time>2013-03-07T16:55:35Z</time>
      </trkpt>
      <trkpt lat="44.48287" lon="4.68665">
        <ele>87.136597</ele>
        <time>2013-03-07T16:55:47Z</time>
      </trkpt>
      <trkpt lat="44.48291" lon="4.68672">
        <ele>85.69458</ele>
        <time>2013-03-07T16:55:59Z</time>
      </trkpt>
      <trkpt lat="44.483" lon="4.68686">
        <ele>82.330078</ele>
        <time>2013-03-07T16:56:16Z</time>
      </trkpt>
      <trkpt lat="44.48306" lon="4.68699">
        <ele>79.446045</ele>
        <time>2013-03-07T16:56:37Z</time>
      </trkpt>
      <trkpt lat="44.48315" lon="4.68705">
        <ele>78.004028</ele>
        <time>2013-03-07T16:56:52Z</time>
      </trkpt>
      <trkpt lat="44.48317" lon="4.68706">
        <ele>78.004028</ele>
        <time>2013-03-07T16:56:55Z</time>
      </trkpt>
      <trkpt lat="44.48326" lon="4.68703">
        <ele>76.081421</ele>
        <time>2013-03-07T16:57:06Z</time>
      </trkpt>
      <trkpt lat="44.48335" lon="4.68702">
        <ele>74.158813</ele>
        <time>2013-03-07T16:57:18Z</time>
      </trkpt>
      <trkpt lat="44.48339" lon="4.68697">
        <ele>73.678223</ele>
        <time>2013-03-07T16:57:35Z</time>
      </trkpt>
      <trkpt lat="44.48343" lon="4.68699">
        <ele>73.678223</ele>
        <time>2013-03-07T16:57:53Z</time>
      </trkpt>
      <trkpt lat="44.48343" lon="4.68694">
        <ele>72.716919</ele>
        <time>2013-03-07T16:58:13Z</time>
      </trkpt>
      <trkpt lat="44.48345" lon="4.68698">
        <ele>73.197632</ele>
        <time>2013-03-07T16:58:30Z</time>
      </trkpt>
      <trkpt lat="44.48348" lon="4.68696">
        <ele>73.197632</ele>
        <time>2013-03-07T16:58:47Z</time>
      </trkpt>
      <trkpt lat="44.4835" lon="4.68695">
        <ele>72.716919</ele>
        <time>2013-03-07T16:59:01Z</time>
      </trkpt>
      <trkpt lat="44.48349" lon="4.68698">
        <ele>72.716919</ele>
        <time>2013-03-07T16:59:16Z</time>
      </trkpt>
      <trkpt lat="44.48344" lon="4.68702">
        <ele>73.678223</ele>
        <time>2013-03-07T16:59:34Z</time>
      </trkpt>
      <trkpt lat="44.48344" lon="4.68699">
        <ele>73.678223</ele>
        <time>2013-03-07T16:59:47Z</time>
      </trkpt>
      <trkpt lat="44.48347" lon="4.68697">
        <ele>73.197632</ele>
        <time>2013-03-07T16:59:56Z</time>
      </trkpt>
      <trkpt lat="44.48347" lon="4.68696">
        <ele>73.197632</ele>
        <time>2013-03-07T16:59:59Z</time>
      </trkpt>
      <trkpt lat="44.48348" lon="4.68697">
        <ele>72.716919</ele>
        <time>2013-03-07T17:00:11Z</time>
      </trkpt>
      <trkpt lat="44.48344" lon="4.68708">
        <ele>72.716919</ele>
        <time>2013-03-07T17:00:22Z</time>
      </trkpt>
      <trkpt lat="44.4835" lon="4.68712">
        <ele>72.716919</ele>
        <time>2013-03-07T17:00:39Z</time>
      </trkpt>
      <trkpt lat="44.48351" lon="4.68713">
        <ele>72.236206</ele>
        <time>2013-03-07T17:00:45Z</time>
      </trkpt>
      <trkpt lat="44.48353" lon="4.68728">
        <ele>71.755493</ele>
        <time>2013-03-07T17:00:59Z</time>
      </trkpt>
      <trkpt lat="44.48354" lon="4.68742">
        <ele>71.274902</ele>
        <time>2013-03-07T17:01:09Z</time>
      </trkpt>
      <trkpt lat="44.48351" lon="4.68758">
        <ele>70.313477</ele>
        <time>2013-03-07T17:01:20Z</time>
      </trkpt>
      <trkpt lat="44.48349" lon="4.68761">
        <ele>70.313477</ele>
        <time>2013-03-07T17:01:22Z</time>
      </trkpt>
      <trkpt lat="44.4835" lon="4.68767">
        <ele>69.832886</ele>
        <time>2013-03-07T17:01:27Z</time>
      </trkpt>
      <trkpt lat="44.48351" lon="4.68769">
        <ele>69.832886</ele>
        <time>2013-03-07T17:01:29Z</time>
      </trkpt>
      <trkpt lat="44.48356" lon="4.68779">
        <ele>68.871582</ele>
        <time>2013-03-07T17:01:37Z</time>
      </trkpt>
      <trkpt lat="44.48356" lon="4.68784">
        <ele>68.871582</ele>
        <time>2013-03-07T17:01:40Z</time>
      </trkpt>
      <trkpt lat="44.48358" lon="4.68787">
        <ele>68.871582</ele>
        <time>2013-03-07T17:01:43Z</time>
      </trkpt>
      <trkpt lat="44.48365" lon="4.68807">
        <ele>66.948975</ele>
        <time>2013-03-07T17:02:02Z</time>
      </trkpt>
      <trkpt lat="44.4838" lon="4.68805">
        <ele>65.987671</ele>
        <time>2013-03-07T17:02:17Z</time>
      </trkpt>
      <trkpt lat="44.48397" lon="4.68818">
        <ele>64.545654</ele>
        <time>2013-03-07T17:02:32Z</time>
      </trkpt>
      <trkpt lat="44.4841" lon="4.68835">
        <ele>63.103638</ele>
        <time>2013-03-07T17:02:48Z</time>
      </trkpt>
      <trkpt lat="44.48413" lon="4.6884">
        <ele>62.622925</ele>
        <time>2013-03-07T17:02:53Z</time>
      </trkpt>
      <trkpt lat="44.48426" lon="4.68862">
        <ele>61.18103</ele>
        <time>2013-03-07T17:03:17Z</time>
      </trkpt>
      <trkpt lat="44.48437" lon="4.6887">
        <ele>60.219727</ele>
        <time>2013-03-07T17:03:36Z</time>
      </trkpt>
      <trkpt lat="44.48446" lon="4.68882">
        <ele>59.258423</ele>
        <time>2013-03-07T17:03:51Z</time>
      </trkpt>
      <trkpt lat="44.48445" lon="4.68891">
        <ele>58.77771</ele>
        <time>2013-03-07T17:04:07Z</time>
      </trkpt>
      <trkpt lat="44.48453" lon="4.68888">
        <ele>58.77771</ele>
        <time>2013-03-07T17:04:20Z</time>
      </trkpt>
      <trkpt lat="44.48464" lon="4.68882">
        <ele>58.77771</ele>
        <time>2013-03-07T17:04:36Z</time>
      </trkpt>
      <trkpt lat="44.48468" lon="4.68886">
        <ele>59.258423</ele>
        <time>2013-03-07T17:04:44Z</time>
      </trkpt>
      <trkpt lat="44.48468" lon="4.68904">
        <ele>58.77771</ele>
        <time>2013-03-07T17:05:00Z</time>
      </trkpt>
      <trkpt lat="44.4847" lon="4.68921">
        <ele>58.297119</ele>
        <time>2013-03-07T17:05:14Z</time>
      </trkpt>
      <trkpt lat="44.4847" lon="4.68936">
        <ele>58.297119</ele>
        <time>2013-03-07T17:05:25Z</time>
      </trkpt>
      <trkpt lat="44.48471" lon="4.6896">
        <ele>57.816528</ele>
        <time>2013-03-07T17:05:41Z</time>
      </trkpt>
      <trkpt lat="44.48474" lon="4.68973">
        <ele>57.816528</ele>
        <time>2013-03-07T17:05:58Z</time>
      </trkpt>
      <trkpt lat="44.48479" lon="4.68991">
        <ele>57.816528</ele>
        <time>2013-03-07T17:06:17Z</time>
      </trkpt>
      <trkpt lat="44.48481" lon="4.69004">
        <ele>57.816528</ele>
        <time>2013-03-07T17:06:32Z</time>
      </trkpt>
      <trkpt lat="44.48482" lon="4.69005">
        <ele>57.816528</ele>
        <time>2013-03-07T17:06:33Z</time>
      </trkpt>
      <trkpt lat="44.48495" lon="4.69011">
        <ele>57.335815</ele>
        <time>2013-03-07T17:06:50Z</time>
      </trkpt>
      <trkpt lat="44.48506" lon="4.69021">
        <ele>57.335815</ele>
        <time>2013-03-07T17:07:07Z</time>
      </trkpt>
      <trkpt lat="44.48515" lon="4.69031">
        <ele>56.855103</ele>
        <time>2013-03-07T17:07:21Z</time>
      </trkpt>
      <trkpt lat="44.48521" lon="4.69036">
        <ele>56.855103</ele>
        <time>2013-03-07T17:07:29Z</time>
      </trkpt>
      <trkpt lat="44.48524" lon="4.69037">
        <ele>57.335815</ele>
        <time>2013-03-07T17:07:32Z</time>
      </trkpt>
      <trkpt lat="44.48537" lon="4.69051">
        <ele>57.335815</ele>
        <time>2013-03-07T17:07:48Z</time>
      </trkpt>
      <trkpt lat="44.48539" lon="4.69056">
        <ele>56.855103</ele>
        <time>2013-03-07T17:07:53Z</time>
      </trkpt>
      <trkpt lat="44.48552" lon="4.69061">
        <ele>56.855103</ele>
        <time>2013-03-07T17:08:07Z</time>
      </trkpt>
      <trkpt lat="44.48565" lon="4.6907">
        <ele>56.855103</ele>
        <time>2013-03-07T17:08:22Z</time>
      </trkpt>
      <trkpt lat="44.48574" lon="4.6907">
        <ele>56.855103</ele>
        <time>2013-03-07T17:08:29Z</time>
      </trkpt>
      <trkpt lat="44.48584" lon="4.69079">
        <ele>56.855103</ele>
        <time>2013-03-07T17:08:41Z</time>
      </trkpt>
      <trkpt lat="44.48592" lon="4.69091">
        <ele>56.855103</ele>
        <time>2013-03-07T17:08:52Z</time>
      </trkpt>
      <trkpt lat="44.48598" lon="4.69095">
        <ele>57.335815</ele>
        <time>2013-03-07T17:08:59Z</time>
      </trkpt>
      <trkpt lat="44.486" lon="4.69098">
        <ele>57.335815</ele>
        <time>2013-03-07T17:09:03Z</time>
      </trkpt>
      <trkpt lat="44.48599" lon="4.69101">
        <ele>56.855103</ele>
        <time>2013-03-07T17:09:05Z</time>
      </trkpt>
      <trkpt lat="44.48608" lon="4.69104">
        <ele>57.335815</ele>
        <time>2013-03-07T17:09:13Z</time>
      </trkpt>
      <trkpt lat="44.48616" lon="4.69109">
        <ele>57.335815</ele>
        <time>2013-03-07T17:09:21Z</time>
      </trkpt>
      <trkpt lat="44.48624" lon="4.69121">
        <ele>57.335815</ele>
        <time>2013-03-07T17:09:33Z</time>
      </trkpt>
      <trkpt lat="44.48639" lon="4.69126">
        <ele>57.335815</ele>
        <time>2013-03-07T17:09:50Z</time>
      </trkpt>
      <trkpt lat="44.48654" lon="4.69132">
        <ele>57.335815</ele>
        <time>2013-03-07T17:10:04Z</time>
      </trkpt>
      <trkpt lat="44.48664" lon="4.69138">
        <ele>57.816528</ele>
        <time>2013-03-07T17:10:17Z</time>
      </trkpt>
      <trkpt lat="44.48666" lon="4.69141">
        <ele>57.335815</ele>
        <time>2013-03-07T17:10:21Z</time>
      </trkpt>
      <trkpt lat="44.48675" lon="4.69148">
        <ele>57.335815</ele>
        <time>2013-03-07T17:10:32Z</time>
      </trkpt>
      <trkpt lat="44.4868" lon="4.69155">
        <ele>57.816528</ele>
        <time>2013-03-07T17:10:39Z</time>
      </trkpt>
      <trkpt lat="44.48684" lon="4.69157">
        <ele>57.335815</ele>
        <time>2013-03-07T17:10:50Z</time>
      </trkpt>
      <trkpt lat="44.48683" lon="4.69159">
        <ele>58.297119</ele>
        <time>2013-03-07T17:11:08Z</time>
      </trkpt>
      <trkpt lat="44.48685" lon="4.69159">
        <ele>57.335815</ele>
        <time>2013-03-07T17:11:18Z</time>
      </trkpt>
      <trkpt lat="44.48686" lon="4.69158">
        <ele>58.297119</ele>
        <time>2013-03-07T17:11:33Z</time>
      </trkpt>
      <trkpt lat="44.48686" lon="4.69158">
        <ele>57.816528</ele>
        <time>2013-03-07T17:12:00Z</time>
      </trkpt>
    </trkseg>
  </trk>
</gpx>